﻿ProjectID	SampleID	SampleType	TaxonomyID	UniqCodeType	UniqCode	SampleName	ScientificName	CommonName	CollectionYear	CollectionMonth	CollectionDay	SamplingTimeStartEnd	SamplingTimeAMPM	SamplingDuration	WeatherStartEnd	CollectionRegion	CollectionCountry	CollectionArea	CollectionLatitudeFrom	CollectionLatitudeTo	CollectionLongitudeFrom	CollectionLongitudeTo	Sex	TissueOrgan	TissueLipid	TissueMoist	Weight	WeightUnit	Length	LengthUnit	LengthType	GrowthStage	Age	Disease	TemperatureStartEnd	WaterTemperatureStartEnd	pH	DO	EC	EC_temp	Salinity	SS	WaterDepthM	TransparencyM	WaterColor	SedimentTemperatureStartEnd	SedimentDepthM	SedimentAppearance	SedimentColor	SedimentSurfaceColor	SedimentOdor	SedimentImpurities	SedimentMoistureOnSiteAnalysis	IgnitionLossOnSiteAnalysis	SoilDepthM	FlowRate	MeanPM10	MeanTotalSuspendedParticles	HumidityStartEnd	WindDirectionStartEnd	WindSpeedMSStartEnd	AmountOfCollectedAirStartEnd	Remarks	RegisterDate	UpdateDate
PRA000014	SAA000482	ST009	1535804			7-Jun	Paraprionospio	polychaete	2007	6						Asia	Japan	"Yodo River mouth, Osaka Bay"	34.59245556	34.67567222	135.3146028	135.3920111																																									Pooled	2016/11/4	2017/1/16
PRA000014	SAA000483	ST009	1535804			7-Apr	Paraprionospio	polychaete	2007	4						Asia	Japan	"Yodo River mouth, Osaka Bay"	34.59245556	34.67567222	135.3146028	135.3920111																																									Pooled	2016/11/4	2017/1/16
PRA000014	SAA000484	ST009	1535804			7-Oct	Paraprionospio	polychaete	2007	10						Asia	Japan	"Yodo River mouth, Osaka Bay"	34.59245556	34.67567222	135.3146028	135.3920111																																									Pooled	2016/11/4	2017/1/16
PRA000014	SAA000485	ST009	1535804			8-Apr	Paraprionospio	polychaete	2008	4						Asia	Japan	"Yodo River mouth, Osaka Bay"	34.59245556	34.67567222	135.3146028	135.3920111																																									Pooled	2016/11/4	2017/1/16
PRA000014	SAA000486	ST009	1535804			8-Jul	Paraprionospio	polychaete	2008	7						Asia	Japan	"Yodo River mouth, Osaka Bay"	34.59245556	34.67567222	135.3146028	135.3920111																																									Pooled	2016/11/4	2017/1/16
PRA000014	SAA000487	ST009	1535804			8-Oct	Paraprionospio	polychaete	2008	10						Asia	Japan	"Yodo River mouth, Osaka Bay"	34.59245556	34.67567222	135.3146028	135.3920111																																									Pooled	2016/11/4	2017/1/16
PRA000014	SAA000488	ST009	1535804			9-Jun	Paraprionospio	polychaete	2009	6						Asia	Japan	"Yodo River mouth, Osaka Bay"	34.59245556	34.67567222	135.3146028	135.3920111																																									Pooled	2016/11/4	2017/1/16
PRA000014	SAA000489	ST023				ST17	Sediment	"Marine sediment"	2007	4						Asia	Japan	"Yodo River mouth, Osaka Bay"	34.6		135.3838889																																NA/45.1913											2016/11/4	2019/7/17
PRA000014	SAA000490	ST023				ST18	Sediment	"Marine sediment"	2007	4						Asia	Japan	"Yodo River mouth, Osaka Bay"	34.66611111		135.3330556																																NA/36.6113											2016/11/4	2019/7/17
PRA000014	SAA000491	ST023				ST21	Sediment	"Marine sediment"	2007	4						Asia	Japan	"Yodo River mouth, Osaka Bay"	34.62388889		135.165																																NA/57.7128											2016/11/4	2019/7/17
PRA000083	SAA004588	ST015		ZETTAICODE_FY2016_W	4012874	Buzen_1_FY2016	Water	"River water"	2016							Asia	Japan	"Shinkawa-bashi bridge, Kuro-kawa Riv., Fukuoka"	33.59277778		131.1722222																7.9	9.4	130			6																					"pH, DO, EC, SS: Annual average; Collected in FY2016(Apr. 1, 2016-Mar. 31, 2017); FukuokaPref_Code: 05010202"	2019/3/5	2019/3/5
PRA000083	SAA004589	ST015		ZETTAICODE_FY2016_W	4012901	Buzen_2_FY2016	Water	"River water"	2016							Asia	Japan	"Kifune-bashi bridge, Tomoeda-gawa Riv., Fukuoka"	33.58055556		131.17																7.8	9.6	100			3																					"pH, DO, EC, SS: Annual average; Collected in FY2016(Apr. 1, 2016-Mar. 31, 2017); FukuokaPref_Code: 05010301"	2019/3/5	2019/3/5
PRA000083	SAA004590	ST015		ZETTAICODE_FY2016_W	4012928	Buzen_3_FY2016	Water	"River water"	2016							Asia	Japan	"Saigawa-bashi bridge, Sai-gawa Riv., Fukuoka"	33.60805556		131.1658333																7.8	9.2	130			3																					"pH, DO, EC, SS: Annual average; Collected in FY2016(Apr. 1, 2016-Mar. 31, 2017); FukuokaPref_Code: 05020101"	2019/3/5	2019/3/5
PRA000083	SAA004591	ST015		ZETTAICODE_FY2016_W	4012955	Buzen_4_FY2016	Water	"River water"	2016							Asia	Japan	"Kutuarai-bashi bridge, Iwatakke-gawa Riv., Fukuoka"	33.61805556		131.1425																7.8	8.9	130			4																					"pH, DO, EC, SS: Annual average; Collected in FY2016(Apr. 1, 2016-Mar. 31, 2017); FukuokaPref_Code: 05030102"	2019/3/5	2019/3/5
PRA000083	SAA004592	ST015		ZETTAICODE_FY2016_W	4012976	Buzen_5_FY2016	Water	"River water"	2016							Asia	Japan	"Hashi no ue-seki weir, Naka-gawa Riv., Fukuoka"	33.615		131.1097222																7.6	9	120			5																					"pH, DO, EC, SS: Annual average; Collected in FY2016(Apr. 1, 2016-Mar. 31, 2017); FukuokaPref_Code: 05040103"	2019/3/5	2019/3/5
PRA000083	SAA004593	ST015		ZETTAICODE_FY2016_W	4012994	Buzen_6_FY2016	Water	"River water"	2016							Asia	Japan	"Sudagawa-bashi bridge, Suda-gawa Riv., Fukuoka"	33.63194444		131.0872222																7.7	9.1	120			5																					"pH, DO, EC, SS: Annual average; Collected in FY2016(Apr. 1, 2016-Mar. 31, 2017); FukuokaPref_Code: 05050101"	2019/3/5	2019/3/5
PRA000083	SAA004594	ST015		ZETTAICODE_FY2016_W	4013033	Buzen_7_FY2016	Water	"River water"	2016							Asia	Japan	"Takinomoto-bashi bridge, Uenokawachi-gawa Riv., Fukuoka"	33.63277778		131.0772222																8	9.4	110			2																					"pH, DO, EC, SS: Annual average; Collected in FY2016(Apr. 1, 2016-Mar. 31, 2017); FukuokaPref_Code: 05060102"	2019/3/5	2019/3/5
PRA000083	SAA004595	ST015		ZETTAICODE_FY2016_W	4013057	Buzen_8_FY2016	Water	"River water"	2016							Asia	Japan	"Akahata-bashi bridge, upstream of Kii-gawa Riv., Fukuoka"	33.65583333		131.0141667																7.7	10	100			2																					"pH, DO, EC, SS: Annual average; Collected in FY2016(Apr. 1, 2016-Mar. 31, 2017); FukuokaPref_Code: 05070103"	2019/3/5	2019/3/5
PRA000083	SAA004596	ST015		ZETTAICODE_FY2016_W	4013078	Buzen_9_FY2016	Water	"River water"	2016							Asia	Japan	"Hamamiya-bashi bridge, downstream of Kii-gawa Riv., Fukuoka"	33.65527778		131.0627778																7.8	10	5300			4																					"pH, DO, EC, SS: Annual average; Collected in FY2016(Apr. 1, 2016-Mar. 31, 2017); FukuokaPref_Code: 05070102"	2019/3/5	2019/3/5
PRA000083	SAA004597	ST015		ZETTAICODE_FY2016_W	4013096	Buzen_10_FY2016	Water	"River water"	2016							Asia	Japan	"Azuma-bashi bridge, Shinnyouji-gawa Riv., Fukuoka"	33.65333333		131.0622222																7.7	9	130			10																					"pH, DO, EC, SS: Annual average; Collected in FY2016(Apr. 1, 2016-Mar. 31, 2017); FukuokaPref_Code: 05070201"	2019/3/5	2019/3/5
PRA000083	SAA004598	ST015		ZETTAICODE_FY2016_W	4013105	Buzen_11_FY2016	Water	"River water"	2016							Asia	Japan	"Nishino-hashi bridge, Iwamaru-gawa Riv., Fukuoka"	33.65722222		131.0569444																7.8	9.4	220			4																					"pH, DO, EC, SS: Annual average; Collected in FY2016(Apr. 1, 2016-Mar. 31, 2017); FukuokaPref_Code: 05070301"	2019/3/5	2019/3/5
PRA000083	SAA004599	ST015		ZETTAICODE_FY2016_W	4013114	Buzen_12_FY2016	Water	"River water"	2016							Asia	Japan	"Kamimoto-bashi bridge, Gokurakuji-gawa Riv., Fukuoka"	33.65		131.0488889																7.6	8.8	120			3																					"pH, DO, EC, SS: Annual average; Collected in FY2016(Apr. 1, 2016-Mar. 31, 2017); FukuokaPref_Code: 05070302"	2019/3/5	2019/3/5
PRA000083	SAA004600	ST015		ZETTAICODE_FY2016_W	4013123	Buzen_13_FY2016	Water	"River water"	2016							Asia	Japan	"Haraigou-bashi bridge, upstream of Harai-gawa Riv., Fukuoka"	33.68166667		130.9936111																7.9	9.8	120			3																					"pH, DO, EC, SS: Annual average; Collected in FY2016(Apr. 1, 2016-Mar. 31, 2017); FukuokaPref_Code: 05090102"	2019/3/5	2019/3/5
PRA000083	SAA004601	ST015		ZETTAICODE_FY2016_W	4013132	Buzen_14_FY2016	Water	"River water"	2016							Asia	Japan	"Kutsuo-bashi bridge, downstream of Harai-gawa Riv., Fukuoka"	33.72944444		131.01																8	9.9	9500			18																					"pH, DO, EC, SS: Annual average; Collected in FY2016(Apr. 1, 2016-Mar. 31, 2017); FukuokaPref_Code: 05090101"	2019/3/5	2019/3/5
PRA000083	SAA004602	ST015		ZETTAICODE_FY2016_W	4013141	Buzen_15_FY2016	Water	"River water"	2016							Asia	Japan	"Noguchi-bashi bridge, upstream of Ima-gawa Riv., Fukuoka"	33.66305556		130.9461111																7.6	9.6	110			5																					"pH, DO, EC, SS: Annual average; Collected in FY2016(Apr. 1, 2016-Mar. 31, 2017); FukuokaPref_Code: 05100103"	2019/3/5	2019/3/5
PRA000083	SAA004603	ST015		ZETTAICODE_FY2016_W	4013150	Buzen_16_FY2016	Water	"River water"	2016							Asia	Japan	"Imagawa Shiodome-seki weir, downstream of Ima-gawa Riv., Fukuoka"	33.73527778		130.9927778																7.9	9.3	110			6																					"pH, DO, EC, SS: Annual average; Collected in FY2016(Apr. 1, 2016-Mar. 31, 2017); FukuokaPref_Code: 05100101"	2019/3/5	2019/3/5
PRA000083	SAA004604	ST015		ZETTAICODE_FY2016_W	4013159	Buzen_17_FY2016	Water	"River water"	2016							Asia	Japan	"Tokiwa-bashi bridge, Ejiri-gawa Riv., Fukuoka"	33.73333333		130.9975																7.8	9.1	9800			13																					"pH, DO, EC, SS: Annual average; Collected in FY2016(Apr. 1, 2016-Mar. 31, 2017); FukuokaPref_Code: 05100201"	2019/3/5	2019/3/5
PRA000083	SAA004605	ST015		ZETTAICODE_FY2016_W	4013168	Buzen_18_FY2016	Water	"River water"	2016							Asia	Japan	"Choonji-bashi bridge, upstream of Nagao-gawa Riv., Fukuoka"	33.73027778		130.9541667																7.9	9.1	200			8																					"pH, DO, EC, SS: Annual average; Collected in FY2016(Apr. 1, 2016-Mar. 31, 2017); FukuokaPref_Code: 05110103"	2019/3/5	2019/3/5
PRA000083	SAA004606	ST015		ZETTAICODE_FY2016_W	4013177	Buzen_19_FY2016	Water	"River water"	2016							Asia	Japan	"Kamekawa-bash bridge, downstream of Nagao-gawa Riv., Fukuoka"	33.73305556		130.9766667																7.8	8.7	9800			11																					"pH, DO, EC, SS: Annual average; Collected in FY2016(Apr. 1, 2016-Mar. 31, 2017); FukuokaPref_Code: 05110102"	2019/3/5	2019/3/5
PRA000083	SAA004607	ST015		ZETTAICODE_FY2016_W	4013186	Buzen_20_FY2016	Water	"River water"	2016							Asia	Japan	"Futazaki-bashi bridge, Obase-gawa, Riv., Fukuoka"	33.74166667		130.9841667																8.1	10	12000			11																					"pH, DO, EC, SS: Annual average; Collected in FY2016(Apr. 1, 2016-Mar. 31, 2017); FukuokaPref_Code: 05110201"	2019/3/5	2019/3/5
PRA000083	SAA004608	ST015		ZETTAICODE_FY2016_W	4013681	Buzen_21_FY2016	Water	"River water"	2016							Asia	Japan	"Matsubara-bashi bridge, Otonashi-gawa Riv., Fukuoka"	33.69		131.0305556																7.8	9.3	170			6																					"pH, DO, EC, SS: Annual average; Collected in FY2016(Apr. 1, 2016-Mar. 31, 2017); FukuokaPref_Code: 05080101"	2019/3/5	2019/3/5
PRA000083	SAA004609	ST015		ZETTAICODE_FY2016_W	4014350	Buzen_40_FY2016	Water	"River water"	2016							Asia	Japan	"Shimotobaru, Yamakuni-gawa Riv., Fukuoka"	33.56944444		131.1827778																7.5	10	84			3																					"pH, DO, EC, SS: Annual average; Collected in FY2016(Apr. 1, 2016-Mar. 31, 2017); FukuokaPref_Code: 05010102"	2019/3/5	2019/3/5
PRA000083	SAA004610	ST015		ZETTAICODE_FY2016_W	4011473	Chikugo_1_FY2016	Water	"River water"	2016							Asia	Japan	"Senoshita, Chigkugo-gawa Riv.(2), Fukuoka"	33.315		130.4883333																7.5	9.2	14			5																					"pH, DO, EC, SS: Annual average; Collected in FY2016(Apr. 1, 2016-Mar. 31, 2017); FukuokaPref_Code: 10010108"	2019/3/5	2019/3/5
PRA000083	SAA004611	ST015		ZETTAICODE_FY2016_W	4011716	Chikugo_12_FY2016	Water	"River water"	2016							Asia	Japan	"Rokugoro-bashi bridge, Chikugo-gawa Riv.(3), Fukuoka"	33.34777778		130.6622222																7.5	9.5	14			28																					"pH, DO, EC, SS: Annual average; Collected in FY2016(Apr. 1, 2016-Mar. 31, 2017); FukuokaPref_Code: 10010103"	2019/3/5	2019/3/5
PRA000083	SAA004612	ST015		ZETTAICODE_FY2016_W	4011794	Chikugo_15_FY2016	Water	"River water"	2016							Asia	Japan	"Iwamoto-bashi bridge, Homan-gawa Riv.(1), Fukuoka"	33.50722222		130.5538889																7.4	9.5	120			2																					"pH, DO, EC, SS: Annual average; Collected in FY2016(Apr. 1, 2016-Mar. 31, 2017); FukuokaPref_Code: 10010707"	2019/3/5	2019/3/5
PRA000083	SAA004613	ST015		ZETTAICODE_FY2016_W	4011821	Chikugo_16_FY2016	Water	"River water"	2016							Asia	Japan	"Sakemi-bashi bridge, Hanamune-gawa Riv., Fukuoka"	33.2125		130.3894444																8.3	9.6	220			18																					"pH, DO, EC, SS: Annual average; Collected in FY2016(Apr. 1, 2016-Mar. 31, 2017); FukuokaPref_Code: 10010202"	2019/3/5	2019/3/5
PRA000083	SAA004614	ST015		ZETTAICODE_FY2016_W	4011980	Chikugo_24_FY2016	Water	"River water"	2016							Asia	Japan	"Tenjiku-bashi, bridge, Yamanoi-gawa Riv., Fukuoka"	33.245		130.4441667																7.7	9				53																					"pH, DO, EC, SS: Annual average; Collected in FY2016(Apr. 1, 2016-Mar. 31, 2017); FukuokaPref_Code: 10010302"	2019/3/5	2019/3/5
PRA000083	SAA004615	ST015		ZETTAICODE_FY2016_W	4012082	Chikugo_29_FY2016	Water	"River water"	2016							Asia	Japan	"Miyuki-bashi bridge, Yamanoi-gawa Riv., Fukuoka"	33.21194444		130.5294444																7.4	9.8				7																					"pH, DO, EC, SS: Annual average; Collected in FY2016(Apr. 1, 2016-Mar. 31, 2017); FukuokaPref_Code: 10010310"	2019/3/5	2019/3/5
PRA000083	SAA004616	ST015		ZETTAICODE_FY2016_W	4012253	Chikugo_38_FY2016	Water	"River water"	2016							Asia	Japan	"Daizenji-bashi bridge, downstream of Hiro-kawa Riv., Fukuoka"	33.27777778		130.4586111																7.7	10				22																					"pH, DO, EC, SS: Annual average; Collected in FY2016(Apr. 1, 2016-Mar. 31, 2017); FukuokaPref_Code: 10010402"	2019/3/5	2019/3/5
PRA000083	SAA004617	ST015		ZETTAICODE_FY2016_W	4012400	Chikugo_43_FY2016	Water	"River water"	2016							Asia	Japan	"Kogaszaka-suimon floodgate, Kanamaru-gawa Riv., Fukuoka"	33.30194444		130.4833333																7.5	8.3				6																					"pH, DO, EC, SS: Annual average; Collected in FY2016(Apr. 1, 2016-Mar. 31, 2017); FukuokaPref_Code: 10010501"	2019/3/5	2019/3/5
PRA000083	SAA004618	ST015		ZETTAICODE_FY2016_W	4012604	Chikugo_47_FY2016	Water	"River water"	2016							Asia	Japan	"Mouth of Kora-gawa Riv., Fukuoka"	33.32361111		130.5316667																7.6	10				2																					"pH, DO, EC, SS: Annual average; Collected in FY2016(Apr. 1, 2016-Mar. 31, 2017); FukuokaPref_Code: 10010801"	2019/3/5	2019/3/5
PRA000083	SAA004619	ST015		ZETTAICODE_FY2016_W	4012655	Chikugo_48_FY2016	Water	"River water"	2016							Asia	Japan	"Mouth of Tachiarai-gawa Riv., Fukuoka"	33.33083334		130.5561111																7.4	8.3				12																					"pH, DO, EC, SS: Annual average; Collected in FY2016(Apr. 1, 2016-Mar. 31, 2017); FukuokaPref_Code: 10011001"	2019/3/5	2019/3/5
PRA000083	SAA004620	ST015		ZETTAICODE_FY2016_W	4012691	Chikugo_50_FY2016	Water	"River water"	2016							Asia	Japan	"Nakabaru-bashi bridge, Kose-gawa Riv., Fukuoka "	33.33833333		130.6816667																7.5	10				4																					"pH, DO, EC, SS: Annual average; Collected in FY2016(Apr. 1, 2016-Mar. 31, 2017); FukuokaPref_Code: 10011404"	2019/3/5	2019/3/5
PRA000083	SAA004621	ST015		ZETTAICODE_FY2016_W	4012721	Chikugo_52_FY2016	Water	"River water"	2016							Asia	Japan	"Takanari-bashi bridge, Koishiwara-gawa Riv., Fukuoka"	33.36055556		130.6330556																7.3	9.4	140			2																					"pH, DO, EC, SS: Annual average; Collected in FY2016(Apr. 1, 2016-Mar. 31, 2017); FukuokaPref_Code: 10011501"	2019/3/5	2019/3/5
PRA000083	SAA004622	ST015		ZETTAICODE_FY2016_W	4012775	Chikugo_54_FY2016	Water	"River water"	2016							Asia	Japan	"Yakatabaru-bashi bridge, upstream of Sata-gawa Riv., Fukuoka"	33.41944444		130.7058333																7.5	9.5	100			1																					"pH, DO, EC, SS: Annual average; Collected in FY2016(Apr. 1, 2016-Mar. 31, 2017); FukuokaPref_Code: 10011603"	2019/3/5	2019/3/5
PRA000083	SAA004623	ST015		ZETTAICODE_FY2016_W	4012802	Chikugo_55_FY2016	Water	"River water"	2016							Asia	Japan	"Satagawa-bashi bridge, downstream of Sata-gawa Riv., Fukuoka"	33.3675		130.6519444																7.4	9.3	190			1																					"pH, DO, EC, SS: Annual average; Collected in FY2016(Apr. 1, 2016-Mar. 31, 2017); FukuokaPref_Code: 10011601"	2019/3/5	2019/3/5
PRA000083	SAA004624	ST015		ZETTAICODE_FY2016_W	4012835	Chikugo_56_FY2016	Water	"River water"	2016							Asia	Japan	"Hinashiro-bashi bridge, Katsura-gawa Riv., Fukuoka"	33.3675		130.6780556																7	9.2	150			3																					"pH, DO, EC, SS: Annual average; Collected in FY2016(Apr. 1, 2016-Mar. 31, 2017); FukuokaPref_Code: 10011701"	2019/3/5	2019/3/5
PRA000083	SAA004625	ST015		ZETTAICODE_FY2016_W	4012859	Chikugo_57_FY2016	Water	"River water"	2016							Asia	Japan	"Yanagino-bashi bridge, Kumagami-gawa Riv., Fukuoka"	33.33305556		130.8027778																7.9	10	98			2																					"pH, DO, EC, SS: Annual average; Collected in FY2016(Apr. 1, 2016-Mar. 31, 2017); FukuokaPref_Code: 10011801"	2019/3/5	2019/3/5
PRA000083	SAA004626	ST015		ZETTAICODE_FY2016_W	4013711	Chikugo_58_FY2016	Water	"River water"	2016							Asia	Japan	"Shimono, Homan-gawa Riv., Fukuoka"	33.33527777		130.5063889																7.4	9				15																					"pH, DO, EC, SS: Annual average; Collected in FY2016(Apr. 1, 2016-Mar. 31, 2017); FukuokaPref_Code: 10010701"	2019/3/5	2019/3/5
PRA000083	SAA004627	ST015		ZETTAICODE_FY2016_W	4014782	Chikugo_90_FY2016	Water	"River water"	2016							Asia	Japan	"Maeda-bashi bridge(Maekoga), Hanamune-gawa Riv., Fukuoka"	33.20555556		130.5308333																7.4	10				6																					"pH, DO, EC, SS: Annual average; Collected in FY2016(Apr. 1, 2016-Mar. 31, 2017); FukuokaPref_Code: 10010208"	2019/3/5	2019/3/5
PRA000083	SAA004628	ST015		ZETTAICODE_FY2016_W	4013603	Chikuzen_1_FY2016	Water	"River water"	2016							Asia	Japan	"Yahagi-bashi bridge, Yahagi-gawa Riv., Fukuoka"	33.87416667		130.6366667																7.3	5.9	620			9																					"pH, DO, EC, SS: Annual average; Collected in FY2016(Apr. 1, 2016-Mar. 31, 2017); FukuokaPref_Code: 08010101"	2019/3/5	2019/3/5
PRA000083	SAA004629	ST015		ZETTAICODE_FY2016_W	4013612	Chikuzen_2_FY2016	Water	"River water"	2016							Asia	Japan	"Shioirigawa-bashi bridge, Shioiri-gawa Riv., Fukuoka"	33.875		130.5944444																7.4	8.1	560			8																					"pH, DO, EC, SS: Annual average; Collected in FY2016(Apr. 1, 2016-Mar. 31, 2017); FukuokaPref_Code: 08020101"	2019/3/5	2019/3/5
PRA000083	SAA004630	ST015		ZETTAICODE_FY2016_W	4013621	Chikuzen_3_FY2016	Water	"River water"	2016							Asia	Japan	"Sunayama-bashi bridge, Shioiri-gawa Riv., Fukuoka"	33.83972222		130.5088889																7.7	8.4	12000			6																					"pH, DO, EC, SS: Annual average; Collected in FY2016(Apr. 1, 2016-Mar. 31, 2017); FukuokaPref_Code: 08030102"	2019/3/5	2019/3/5
PRA000083	SAA004631	ST015		ZETTAICODE_FY2016_W	4013627	Chikuzen_4_FY2016	Water	"River water"	2016							Asia	Japan	"Tare-bashi bridge, Tsuri-kawa Riv., Fukuoka"	33.82361111		130.5180556																7.8	9.1	300			8																					"pH, DO, EC, SS: Annual average; Collected in FY2016(Apr. 1, 2016-Mar. 31, 2017); FukuokaPref_Code: 08030104"	2019/3/5	2019/3/5
PRA000083	SAA004632	ST015		ZETTAICODE_FY2016_W	4013642	Chikuzen_5_FY2016	Water	"River water"	2016							Asia	Japan	"Hamada-bashi bridge, Saigo-gawa Riv., Fukuoka"	33.76277778		130.4766667																7.7	8.8	6600			8																					"pH, DO, EC, SS: Annual average; Collected in FY2016(Apr. 1, 2016-Mar. 31, 2017); FukuokaPref_Code: 08040102"	2019/3/5	2019/3/5
PRA000083	SAA004633	ST015		ZETTAICODE_FY2016_W	4013651	Chikuzen_6_FY2016	Water	"River water"	2016							Asia	Japan	"Daikongawa-bashi bridge, upstream of Daikon-gawa Riv., Fukuoka"	33.73277778		130.4772222																7.4	8.3	240			13																					"pH, DO, EC, SS: Annual average; Collected in FY2016(Apr. 1, 2016-Mar. 31, 2017); FukuokaPref_Code: 08060102"	2019/3/5	2019/3/5
PRA000083	SAA004634	ST015		ZETTAICODE_FY2016_W	4013654	Chikuzen_7_FY2016	Water	"River water"	2016							Asia	Japan	"Ishigasaki-bashi bridge, upstream of Daikon-gawa Riv., Fukuoka"	33.72444444		130.4713889																7.5	8.6	360			6																					"pH, DO, EC, SS: Annual average; Collected in FY2016(Apr. 1, 2016-Mar. 31, 2017); FukuokaPref_Code: 08060201"	2019/3/5	2019/3/5
PRA000083	SAA004635	ST015		ZETTAICODE_FY2016_W	4013657	Chikuzen_8_FY2016	Water	"River water"	2016							Asia	Japan	"Hanatsuru-bashi bridge, downstream of Daikon-gawa Riv., Fukuoka"	33.7275		130.4608333																7.4	8.5	5000			7																					"pH, DO, EC, SS: Annual average; Collected in FY2016(Apr. 1, 2016-Mar. 31, 2017); FukuokaPref_Code: 08060101"	2019/3/5	2019/3/5
PRA000083	SAA004636	ST015		ZETTAICODE_FY2016_W	4013660	Chikuzen_9_FY2016	Water	"River water"	2016							Asia	Japan	"Minato-bashi bridge, Minato-gawa Riv., Fukuoka"	33.7125		130.4302778																7.7	7.3	21000			7																					"pH, DO, EC, SS: Annual average; Collected in FY2016(Apr. 1, 2016-Mar. 31, 2017); FukuokaPref_Code: 08070101"	2019/3/5	2019/3/5
PRA000083	SAA004637	ST015		ZETTAICODE_FY2016_W	4013663	Chikuzen_10_FY2016	Water	"River water"	2016							Asia	Japan	"Shioi-bashi bridge, Sakurai-gawa Riv., Fukuoka"	33.61138889		130.1627778																7.3	8.8	940			7																					"pH, DO, EC, SS: Annual average; Collected in FY2016(Apr. 1, 2016-Mar. 31, 2017); FukuokaPref_Code: 08080101"	2019/3/5	2019/3/5
PRA000083	SAA004638	ST015		ZETTAICODE_FY2016_W	4013666	Chikuzen_11_FY2016	Water	"River water"	2016							Asia	Japan	"Kafuri-bashi bridge, Raizan-gawa Riv., Fukuoka"	33.565		130.1902778																7.5	8.6	420			16																					"pH, DO, EC, SS: Annual average; Collected in FY2016(Apr. 1, 2016-Mar. 31, 2017); FukuokaPref_Code: 08090102"	2019/3/5	2019/3/5
PRA000083	SAA004639	ST015		ZETTAICODE_FY2016_W	4013669	Chikuzen_12_FY2016	Water	"River water"	2016							Asia	Japan	"Akasaka-bashi bridge, Raizan-gawa Riv., Fukuoka"	33.54694444		130.1777778																7.5	9.7	170			8																					"pH, DO, EC, SS: Annual average; Collected in FY2016(Apr. 1, 2016-Mar. 31, 2017); FukuokaPref_Code: 08090201"	2019/3/5	2019/3/5
PRA000083	SAA004640	ST015		ZETTAICODE_FY2016_W	4013672	Chikuzen_13_FY2016	Water	"River water"	2016							Asia	Japan	"Fukae-bashi bridge, Ikisan-gawa Riv., Fukuoka"	33.50444444		130.1391667																7.4	9.6	11000			15																					"pH, DO, EC, SS: Annual average; Collected in FY2016(Apr. 1, 2016-Mar. 31, 2017); FukuokaPref_Code: 08100101"	2019/3/5	2019/3/5
PRA000083	SAA004641	ST015		ZETTAICODE_FY2016_W	4013675	Chikuzen_14_FY2016	Water	"River water"	2016							Asia	Japan	"Sanami-bashi bridge, Kamo-gawa Riv., Fukuoka"	33.5075		130.1133333																7.9	9.9	130			12																					"pH, DO, EC, SS: Annual average; Collected in FY2016(Apr. 1, 2016-Mar. 31, 2017); FukuokaPref_Code: 08110101"	2019/3/5	2019/3/5
PRA000083	SAA004642	ST015		ZETTAICODE_FY2016_W	4013678	Chikuzen_15_FY2016	Water	"River water"	2016							Asia	Japan	"Fukuyoshi-bashi bridge, Fukuyoshi-gawa Riv., Fukuoka"	33.50416667		130.0836111																7.5	9.6	170			6																					"pH, DO, EC, SS: Annual average; Collected in FY2016(Apr. 1, 2016-Mar. 31, 2017); FukuokaPref_Code: 08120101"	2019/3/5	2019/3/5
PRA000083	SAA004643	ST015		ZETTAICODE_FY2016_W	4014059	Chikuzen_18_FY2016	Water	"River water"	2016							Asia	Japan	"Kawabata-zeki weir, Tsuri-kawa Riv., Fukuoka"	33.83361111		130.5152778																8.1	9				11																					"pH, DO, EC, SS: Annual average; Collected in FY2016(Apr. 1, 2016-Mar. 31, 2017); FukuokaPref_Code: 08030108"	2019/3/5	2019/3/5
PRA000083	SAA004644	ST015		ZETTAICODE_FY2016_W	4014428	Chikuzen_24_FY2016	Water	"River water"	2016							Asia	Japan	"Under Hamada-bashi bridge, Saigo-gawa Riv., Fukuoka"	33.76222222		130.4719444																7.9	9.4	1200			10																					"pH, DO, EC, SS: Annual average; Collected in FY2016(Apr. 1, 2016-Mar. 31, 2017); FukuokaPref_Code: 08040105"	2019/3/5	2019/3/5
PRA000083	SAA004645	ST015		ZETTAICODE_FY2016_W	4014431	Chikuzen_25_FY2016	Water	"River water"	2016							Asia	Japan	"Hamadai-seki weir, Saigo-gawa Riv., Fukuoka"	33.76277778		130.4763889																7.9	9.7	380			8																					"pH, DO, EC, SS: Annual average; Collected in FY2016(Apr. 1, 2016-Mar. 31, 2017); FukuokaPref_Code: 08040106"	2019/3/5	2019/3/5
PRA000083	SAA004646	ST015		ZETTAICODE_FY2016_W	4014434	Chikuzen_26_FY2016	Water	"River water"	2016							Asia	Japan	"Under the railload bridge of JR Kagoshima Line, Saigo-gawa Riv., Fukuoka"	33.76222222		130.4841667																7.9	10	370			7																					"pH, DO, EC, SS: Annual average; Collected in FY2016(Apr. 1, 2016-Mar. 31, 2017); FukuokaPref_Code: 08040107"	2019/3/5	2019/3/5
PRA000083	SAA004647	ST015		ZETTAICODE_FY2016_W	4014437	Chikuzen_27_FY2016	Water	"River water"	2016							Asia	Japan	"Under Shikaku-bashi bridge, Saigo-gawa Riv., Fukuoka"	33.76111111		130.4944444																7.9	10	330			4																					"pH, DO, EC, SS: Annual average; Collected in FY2016(Apr. 1, 2016-Mar. 31, 2017); FukuokaPref_Code: 08040108"	2019/3/5	2019/3/5
PRA000083	SAA004648	ST015		ZETTAICODE_FY2016_W	4014440	Chikuzen_28_FY2016	Water	"River water"	2016							Asia	Japan	"Under Kawara-bashi bridge, Saigo-gawa Riv., Fukuoka"	33.75944444		130.5122222																7.9	11	320			3																					"pH, DO, EC, SS: Annual average; Collected in FY2016(Apr. 1, 2016-Mar. 31, 2017); FukuokaPref_Code: 08040109"	2019/3/5	2019/3/5
PRA000083	SAA004649	ST015		ZETTAICODE_FY2016_W	4014908	Chikuzen_29_FY2016	Water	"River water"	2016							Asia	Japan	"Shinko-bashi bridge, Tsuri-kawa Riv., Fukuoka"	33.80361111		130.6122222																8.1	9.7				8																					"pH, DO, EC, SS: Annual average; Collected in FY2016(Apr. 1, 2016-Mar. 31, 2017); FukuokaPref_Code: 08030115"	2019/3/5	2019/3/5
PRA000083	SAA004650	ST015		ZETTAICODE_FY2016_W	4014911	Chikuzen_30_FY2016	Water	"River water"	2016							Asia	Japan	"Taku-bashi bridge, Tsuri-kawa Riv., Fukuoka"	33.80388889		130.5791667																8.2	11				4																					"pH, DO, EC, SS: Annual average; Collected in FY2016(Apr. 1, 2016-Mar. 31, 2017); FukuokaPref_Code: 08030116"	2019/3/5	2019/3/5
PRA000083	SAA004651	ST015		ZETTAICODE_FY2016_W	4014914	Chikuzen_31_FY2016	Water	"River water"	2016							Asia	Japan	"Togo-bashi bridge, Tsuri-kawa Riv., Fukuoka"	33.8075		130.5475																8.2	11				6																					"pH, DO, EC, SS: Annual average; Collected in FY2016(Apr. 1, 2016-Mar. 31, 2017); FukuokaPref_Code: 08030117"	2019/3/5	2019/3/5
PRA000083	SAA004652	ST015		ZETTAICODE_FY2016_W	4020010	FukLakePond_1_FY2016	Water	"Dam water"	2016							Asia	Japan	"Hyugami dam, Fukuoka"	33.17527778		130.7811111																7.6	8.8	81			4																					"pH, DO, EC, SS: Annual average; Collected in FY2016(Apr. 1, 2016-Mar. 31, 2017); FukuokaPref_Code: 11031101"	2019/3/5	2019/3/5
PRA000083	SAA004653	ST015		ZETTAICODE_FY2016_W	4020030	FukLakePond_2_FY2016	Water	"Dam water"	2016							Asia	Japan	"Terauchi dam, Fukuoka"	33.43055556		130.7258333																7.3	8.1				3																					"pH, DO, EC, SS: Annual average; Collected in FY2016(Apr. 1, 2016-Mar. 31, 2017); FukuokaPref_Code: 10015001"	2019/3/5	2019/3/5
PRA000083	SAA004654	ST015		ZETTAICODE_FY2016_W	4020040	FukLakePond_3_FY2016	Water	"Dam water"	2016							Asia	Japan	"Rikimaru dam, Fukuoka"	33.68861111		130.6263889																7.7	7.9	130			5																					"pH, DO, EC, SS: Annual average; Collected in FY2016(Apr. 1, 2016-Mar. 31, 2017); FukuokaPref_Code: 07010417"	2019/3/5	2019/3/5
PRA000083	SAA004655	ST015		ZETTAICODE_FY2016_W	4020050	FukLakePond_4_FY2016	Water	"Dam water"	2016							Asia	Japan	"Aburagi dam, Fukuoka"	33.55361111		130.8947222																7.4	7.7	84			3																					"pH, DO, EC, SS: Annual average; Collected in FY2016(Apr. 1, 2016-Mar. 31, 2017); FukuokaPref_Code: 05100301"	2019/3/5	2019/3/5
PRA000083	SAA004656	ST015		ZETTAICODE_FY2016_W	4020080	FukLakePond_5_FY2016	Water	"Dam water"	2016							Asia	Japan	"Masubuchi dam, Fukuoka"	33.76166667		130.8388889																7.4	7.9	10			1																					"pH, DO, EC, SS: Annual average; Collected in FY2016(Apr. 1, 2016-Mar. 31, 2017); FukuokaPref_Code: 06090701"	2019/3/5	2019/3/5
PRA000083	SAA004657	ST015		ZETTAICODE_FY2016_W	4010003	Hakata_1_FY2016	Water	"River water"	2016							Asia	Japan	"Shiobara-bashi bridge, upstream of Naka-gawa Riv., Fukuoka"	33.56888889		130.4291667																7.6	10	16			4																					"pH, DO, EC, SS: Annual average; Collected in FY2016(Apr. 1, 2016-Mar. 31, 2017); FukuokaPref_Code: 09070106"	2019/3/5	2019/3/5
PRA000083	SAA004659	ST015		ZETTAICODE_FY2016_W	4010054	Hakata_3_FY2016	Water	"River water"	2016							Asia	Japan	"Sumiyoshi-bashi bridge, downstream of Naka-gawa Riv.(1), Fukuoka"	33.58555555		130.4097222																7.3	9	800			9																					"pH, DO, EC, SS: Annual average; Collected in FY2016(Apr. 1, 2016-Mar. 31, 2017); FukuokaPref_Code: 09070103"	2019/3/5	2019/3/5
PRA000083	SAA004660	ST015		ZETTAICODE_FY2016_W	4010075	Hakata_4_FY2016	Water	"River water"	2016							Asia	Japan	"Nanotsu-ohashi bridge, downstream of Naka-gawa Riv.(2), Fukuoka"	33.59944444		130.3997222																7.5	8.5	1800			5																					"pH, DO, EC, SS: Annual average; Collected in FY2016(Apr. 1, 2016-Mar. 31, 2017); FukuokaPref_Code: 09070101"	2019/3/5	2019/3/5
PRA000083	SAA004663	ST015		ZETTAICODE_FY2016_W	4010123	Hakata_7_FY2016	Water	"River water"	2016							Asia	Japan	"Itazuke-bashi bridge, upstream of Mikasa-gawa Riv., Fukuoka"	33.56833334		130.4530556																7.9	11	18			5																					"pH, DO, EC, SS: Annual average; Collected in FY2016(Apr. 1, 2016-Mar. 31, 2017); FukuokaPref_Code: 09060105"	2019/3/5	2019/3/5
PRA000083	SAA004665	ST015		ZETTAICODE_FY2016_W	4010228	Hakata_11_FY2016	Water	"River water"	2016							Asia	Japan	"Chidori-bashi bridge, downstream of Mikasa-gawa Riv.(2), Fukuoka"	33.60444444		130.4086111																7.3	8.2	1100			4																					"pH, DO, EC, SS: Annual average; Collected in FY2016(Apr. 1, 2016-Mar. 31, 2017); FukuokaPref_Code: 09060101"	2019/3/5	2019/3/5
PRA000083	SAA004666	ST015		ZETTAICODE_FY2016_W	4013375	Hakata_12_FY2016	Water	"River water"	2016							Asia	Japan	"Ookuma-bashi bridge, upstream of Tatara-gawa Riv., Fukuoka"	33.6225		130.4963889																7.9	9.9	220			4																					"pH, DO, EC, SS: Annual average; Collected in FY2016(Apr. 1, 2016-Mar. 31, 2017); FukuokaPref_Code: 09050107"	2019/3/5	2019/3/5
PRA000083	SAA004667	ST015		ZETTAICODE_FY2016_W	4013381	Hakata_13_FY2016	Water	"River water"	2016							Asia	Japan	"Amouzu-bashi bridge, upstream of Tatara-gawa Riv., Fukuoka"	33.630287		130.46797																8.1	11	24			6																					"pH, DO, EC, SS: Annual average; Collected in FY2016(Apr. 1, 2016-Mar. 31, 2017); FukuokaPref_Code: 09050105"	2019/03/05	2019/03/05
PRA000083	SAA004668	ST015		ZETTAICODE_FY2016_W	4013387	Hakata_14_FY2016	Water	"River water"	2016							Asia	Japan	"Fukai-bashi bridge, upstream of Tatara-gawa Riv., Fukuoka"	33.64111111		130.4955556																8.1	10	210			3																					"pH, DO, EC, SS: Annual average; Collected in FY2016(Apr. 1, 2016-Mar. 31, 2017); FukuokaPref_Code: 09050204"	2019/3/5	2019/3/5
PRA000083	SAA004669	ST015		ZETTAICODE_FY2016_W	4013396	Hakata_15_FY2016	Water	"River water"	2016							Asia	Japan	"Najima-bashi bridge, downstream of Tatara-gawa Riv., Fukuoka"	33.639706		130.426939																7.7	7.9	2400			6																					"pH, DO, EC, SS: Annual average; Collected in FY2016(Apr. 1, 2016-Mar. 31, 2017); FukuokaPref_Code: 09050101"	2019/03/05	2019/03/05
PRA000083	SAA004670	ST015		ZETTAICODE_FY2016_W	4013411	Hakata_16_FY2016	Water	"River water"	2016							Asia	Japan	"Sakado-bashi bridge, upstream of Sue-gawa Riv., Fukuoka"	33.59888889		130.4827778																7.8	9.5	230			5																					"pH, DO, EC, SS: Annual average; Collected in FY2016(Apr. 1, 2016-Mar. 31, 2017); FukuokaPref_Code: 09050303"	2019/3/5	2019/3/5
PRA000083	SAA004671	ST015		ZETTAICODE_FY2016_W	4013420	Hakata_17_FY2016	Water	"River water"	2016							Asia	Japan	"Kyuya-bashi bridge, downstream of Sue-gawa Riv., Fukuoka"	33.624055		130.430771																7.9	9.1	1000			8																					"pH, DO, EC, SS: Annual average; Collected in FY2016(Apr. 1, 2016-Mar. 31, 2017); FukuokaPref_Code: 09050301"	2019/03/05	2019/03/05
PRA000083	SAA004672	ST015		ZETTAICODE_FY2016_W	4013432	Hakata_18_FY2016	Water	"River water"	2016							Asia	Japan	"Kameyamashin-bashi bridge, upstream of Umi-gawa Riv., Fukuoka"	33.6		130.4633333																8.1	9.9	250			3																					"pH, DO, EC, SS: Annual average; Collected in FY2016(Apr. 1, 2016-Mar. 31, 2017); FukuokaPref_Code: 09050405"	2019/3/5	2019/3/5
PRA000083	SAA004673	ST015		ZETTAICODE_FY2016_W	4013441	Hakata_19_FY2016	Water	"River water"	2016							Asia	Japan	"Tounomoto-bashi bridge, downstream of Umi-gawa Riv., Fukuoka"	33.623557		130.430194																7.6	8.2	940			8																					"pH, DO, EC, SS: Annual average; Collected in FY2016(Apr. 1, 2016-Mar. 31, 2017); FukuokaPref_Code: 09050401"	2019/03/05	2019/03/05
PRA000083	SAA004674	ST015		ZETTAICODE_FY2016_W	4013453	Hakata_20_FY2016	Water	"River water"	2016							Asia	Japan	"Old Imagawa-bashi bridge, Hii-gawa Riv., Fukuoka"	33.58472222		130.3638889																7.6	8.9	1400			3																					"pH, DO, EC, SS: Annual average; Collected in FY2016(Apr. 1, 2016-Mar. 31, 2017); FukuokaPref_Code: 09080101"	2019/3/5	2019/3/5
PRA000083	SAA004677	ST015		ZETTAICODE_FY2016_W	4013480	Hakata_23_FY2016	Water	"River water"	2016							Asia	Japan	"Muromi-bashi bridge, Muromi Riv., Fukuoka"	33.58138889		130.3383333																7.7	10	440			6																					"pH, DO, EC, SS: Annual average; Collected in FY2016(Apr. 1, 2016-Mar. 31, 2017); FukuokaPref_Code: 09100101"	2019/3/5	2019/3/5
PRA000083	SAA004680	ST015		ZETTAICODE_FY2016_W	4013510	Hakata_26_FY2016	Water	"River water"	2016							Asia	Japan	"Tobiishi-bashi bridge, Kanakuzu-gawa Riv., Fukuoka"	33.58111111		130.345																7.8	11	230			4																					"pH, DO, EC, SS: Annual average; Collected in FY2016(Apr. 1, 2016-Mar. 31, 2017); FukuokaPref_Code: 09090101"	2019/3/5	2019/3/5
PRA000083	SAA004683	ST015		ZETTAICODE_FY2016_W	4013534	Hakata_29_FY2016	Water	"River water"	2016							Asia	Japan	"Kotokuji-bashi bridge, Nagara-gawa Riv., Fukuoka"	33.5875		130.3183333																7.3	8.6	940			3																					"pH, DO, EC, SS: Annual average; Collected in FY2016(Apr. 1, 2016-Mar. 31, 2017); FukuokaPref_Code: 09110101"	2019/3/5	2019/3/5
PRA000083	SAA004684	ST015		ZETTAICODE_FY2016_W	4013543	Hakata_30_FY2016	Water	"River water"	2016							Asia	Japan	"Iki-bashi bridge, Jyuro-gawa Riv., Fukuoka"	33.58527777		130.3127778																7.8	11	1600			6																					"pH, DO, EC, SS: Annual average; Collected in FY2016(Apr. 1, 2016-Mar. 31, 2017); FukuokaPref_Code: 09120101"	2019/3/5	2019/3/5
PRA000083	SAA004685	ST015		ZETTAICODE_FY2016_W	4013555	Hakata_31_FY2016	Water	"River water"	2016							Asia	Japan	"Shodai-bashi bridge, Zuibaiji-gawa Riv., Fukuoka"	33.58861111		130.2402778																7.5	9.4	920			10																					"pH, DO, EC, SS: Annual average; Collected in FY2016(Apr. 1, 2016-Mar. 31, 2017); FukuokaPref_Code: 09140101"	2019/3/5	2019/3/5
PRA000083	SAA004686	ST015		ZETTAICODE_FY2016_W	4013570	Hakata_33_FY2016	Water	"River water"	2016							Asia	Japan	"Hamada-bashi bridge, Tounoharu-gawa Riv., Fukuoka"	33.6775		130.435																7.9	11	620			7																					"pH, DO, EC, SS: Annual average; Collected in FY2016(Apr. 1, 2016-Mar. 31, 2017); FukuokaPref_Code: 09010101"	2019/3/5	2019/3/5
PRA000083	SAA004689	ST015		ZETTAICODE_FY2016_W	4013696	Hakata_36_FY2016	Water	"River water"	2016							Asia	Japan	"Kaminamazugawa-bashi bridge, Nanadera-gawa Riv., Fukuoka"	33.57944445		130.2816667																7.4	9.7	68			2																					"pH, DO, EC, SS: Annual average; Collected in FY2016(Apr. 1, 2016-Mar. 31, 2017); FukuokaPref_Code: 09130101"	2019/3/5	2019/3/5
PRA000083	SAA004690	ST015		ZETTAICODE_FY2016_W	4013777	Hakata_37_FY2016	Water	"River water"	2016							Asia	Japan	"Genyo-bashi bridge, Enokuchi-gawa Riv., Fukuoka"	33.58666666		130.2602778																7.8	9.1	2000			9																					"pH, DO, EC, SS: Annual average; Collected in FY2016(Apr. 1, 2016-Mar. 31, 2017); FukuokaPref_Code: 09150101"	2019/3/5	2019/3/5
PRA000083	SAA004691	ST015		ZETTAICODE_FY2016_W	4013891	Hakata_39_FY2016	Water	"River water"	2016							Asia	Japan	"Kaneshima-bashi bridge, downstream of Mikasa-gawa Riv.(1), Fukuoka"	33.57833334		130.4372222																7.1	8.9	140			3																					"pH, DO, EC, SS: Annual average; Collected in FY2016(Apr. 1, 2016-Mar. 31, 2017); FukuokaPref_Code: 09060111"	2019/3/5	2019/3/5
PRA000083	SAA004692	ST015		ZETTAICODE_FY2016_W	4010258	Kitakyushu_1_FY2016	Water	"River water"	2016							Asia	Japan	"Sakae-bashi bridge, E-gawa Riv., Fukuoka"	33.89055555		130.7411111																7.9	7.8	3400			3																					"pH, DO, EC, SS: Annual average; Collected in FY2016(Apr. 1, 2016-Mar. 31, 2017); FukuokaPref_Code: 06180101"	2019/3/5	2019/3/5
PRA000083	SAA004693	ST015		ZETTAICODE_FY2016_W	4010297	Kitakyushu_2_FY2016	Water	"River water"	2016							Asia	Japan	"Honjin-bashi bridge, Shinshinhori-kawa Riv., Fukuoka"	33.86944445		130.7325																7.7	6.7	2700			4																					"pH, DO, EC, SS: Annual average; Collected in FY2016(Apr. 1, 2016-Mar. 31, 2017); FukuokaPref_Code: 06160102"	2019/3/5	2019/3/5
PRA000083	SAA004694	ST015		ZETTAICODE_FY2016_W	4010342	Kitakyushu_3_FY2016	Water	"River water"	2016							Asia	Japan	"Kayo-bashi bridge, upstream of Murasaki-gawa Riv., Fukuoka"	33.80777778		130.8605556																8.1	11	28			4																					"pH, DO, EC, SS: Annual average; Collected in FY2016(Apr. 1, 2016-Mar. 31, 2017); FukuokaPref_Code: 06090501"	2019/3/5	2019/3/5
PRA000083	SAA004695	ST015		ZETTAICODE_FY2016_W	4010357	Kitakyushu_4_FY2016	Water	"River water"	2016							Asia	Japan	"Misono-bashi bridge, upstream of Murasaki-gawa Riv., Fukuoka"	33.80722222		130.8525																8	10	17			5																					"pH, DO, EC, SS: Annual average; Collected in FY2016(Apr. 1, 2016-Mar. 31, 2017); FukuokaPref_Code: 06090601"	2019/3/5	2019/3/5
PRA000083	SAA004696	ST015		ZETTAICODE_FY2016_W	4010372	Kitakyushu_5_FY2016	Water	"River water"	2016							Asia	Japan	"downstream point of Shii-gawa Riv., upstream of Murasaki-gawa Riv., Fukuoka"	33.84138889		130.8697222																7.9	10	25			2																					"pH, DO, EC, SS: Annual average; Collected in FY2016(Apr. 1, 2016-Mar. 31, 2017); FukuokaPref_Code: 06090401"	2019/3/5	2019/3/5
PRA000083	SAA004697	ST015		ZETTAICODE_FY2016_W	4010387	Kitakyushu_6_FY2016	Water	"River water"	2016							Asia	Japan	"Murasakigawa-Shusuizeki weir, upstream of Murasaki-gawa Riv., Fukuoka"	33.87083334		130.8691667																7.9	9.8	22			3																					"pH, DO, EC, SS: Annual average; Collected in FY2016(Apr. 1, 2016-Mar. 31, 2017); FukuokaPref_Code: 06090102"	2019/3/5	2019/3/5
PRA000083	SAA004698	ST015		ZETTAICODE_FY2016_W	4010438	Kitakyushu_7_FY2016	Water	"River water"	2016							Asia	Japan	"Katsuyama-bashi bridge, downstream of Murasaki-gawa Riv., Fukuoka"	33.88583333		130.8772222																7.8	7.9	1200			2																					"pH, DO, EC, SS: Annual average; Collected in FY2016(Apr. 1, 2016-Mar. 31, 2017); FukuokaPref_Code: 06090101"	2019/3/5	2019/3/5
PRA000083	SAA004699	ST015		ZETTAICODE_FY2016_W	4010483	Kitakyushu_8_FY2016	Water	"River water"	2016							Asia	Japan	"Tanga-bashi bridge, Kantake-gawa Riv., Fukuoka"	33.88222223		130.8786111																7.8	7.3	2200			2																					"pH, DO, EC, SS: Annual average; Collected in FY2016(Apr. 1, 2016-Mar. 31, 2017); FukuokaPref_Code: 06090201"	2019/3/5	2019/3/5
PRA000083	SAA004700	ST015		ZETTAICODE_FY2016_W	4010498	Kitakyushu_9_FY2016	Water	"River water"	2016							Asia	Japan	"Sashiba-Shusuizeki weir, upstream of Itabitsu-gawa Riv., Fukuoka"	33.85333333		130.8158333																7.9	9.6	15			4																					"pH, DO, EC, SS: Annual average; Collected in FY2016(Apr. 1, 2016-Mar. 31, 2017); FukuokaPref_Code: 06100106"	2019/3/5	2019/3/5
PRA000083	SAA004701	ST015		ZETTAICODE_FY2016_W	4010525	Kitakyushu_10_FY2016	Water	"River water"	2016							Asia	Japan	"Sakai-bashi bridge, midstream of Itabitsu-gawa Riv., Fukuoka"	33.88083334		130.8563889																8	11	23			1																					"pH, DO, EC, SS: Annual average; Collected in FY2016(Apr. 1, 2016-Mar. 31, 2017); FukuokaPref_Code: 06100102"	2019/3/5	2019/3/5
PRA000083	SAA004702	ST015		ZETTAICODE_FY2016_W	4010564	Kitakyushu_11_FY2016	Water	"River water"	2016							Asia	Japan	"Shinminato-bashi bridge, downstream of Itabitsu-gawa Riv., Fukuoka"	33.89527777		130.8641667																7.9	8.4	1800			2																					"pH, DO, EC, SS: Annual average; Collected in FY2016(Apr. 1, 2016-Mar. 31, 2017); FukuokaPref_Code: 06100101"	2019/3/5	2019/3/5
PRA000083	SAA004703	ST015		ZETTAICODE_FY2016_W	4010630	Kitakyushu_13_FY2016	Water	"River water"	2016							Asia	Japan	"side of JR railway siding, downstream of Itabitsu-gawa Riv., Fukuoka"	33.86694445		130.7608333																7.8	7.4	720			2																					"pH, DO, EC, SS: Annual average; Collected in FY2016(Apr. 1, 2016-Mar. 31, 2017); FukuokaPref_Code: 06140101"	2019/3/5	2019/3/5
PRA000083	SAA004704	ST015		ZETTAICODE_FY2016_W	4010699	Kitakyushu_15_FY2016	Water	"River water"	2016							Asia	Japan	"below the JR raiway bridge, downstream of Wariko-gawa Riv., Fukuoa"	33.8675		130.7511111																7.4	5.1	2100			3																					"pH, DO, EC, SS: Annual average; Collected in FY2016(Apr. 1, 2016-Mar. 31, 2017); FukuokaPref_Code: 06150101"	2019/3/5	2019/3/5
PRA000083	SAA004705	ST015		ZETTAICODE_FY2016_W	4010759	Kitakyushu_17_FY2016	Water	"River water"	2016							Asia	Japan	"near meeting point with Shinshinhori-kawa Riv., downstream of Kinzan-gawa Riv., Fukuoka"	33.86444444		130.7247222																7.7	7.8	2600			6																					"pH, DO, EC, SS: Annual average; Collected in FY2016(Apr. 1, 2016-Mar. 31, 2017); FukuokaPref_Code: 06160201"	2019/3/5	2019/3/5
PRA000083	SAA004706	ST015		ZETTAICODE_FY2016_W	4010801	Kitakyushu_19_FY2016	Water	"River water"	2016							Asia	Japan	"Kukikita-bashi bridge, downstream of Kanate-gawa Riv., Fukuoka"	33.87972223		130.7380556																7.9	7.6	3300			3																					"pH, DO, EC, SS: Annual average; Collected in FY2016(Apr. 1, 2016-Mar. 31, 2017); FukuokaPref_Code: 06170101"	2019/3/5	2019/3/5
PRA000083	SAA004707	ST015		ZETTAICODE_FY2016_W	4010825	Kitakyushu_20_FY2016	Water	"River water"	2016							Asia	Japan	"Miyamae-bashi bridge, Okuhata-gawa Riv., Fukuoka"	33.92916667		130.9994444																7.8	10	22			2																					"pH, DO, EC, SS: Annual average; Collected in FY2016(Apr. 1, 2016-Mar. 31, 2017); FukuokaPref_Code: 06040101"	2019/3/5	2019/3/5
PRA000083	SAA004708	ST015		ZETTAICODE_FY2016_W	4010852	Kitakyushu_21_FY2016	Water	"River water"	2016							Asia	Japan	"Shinkai-bashi bridge, Chikuma-gawa Riv., Fukuoka"	33.84222222		130.9436111																8.2	11	33			6																					"pH, DO, EC, SS: Annual average; Collected in FY2016(Apr. 1, 2016-Mar. 31, 2017); FukuokaPref_Code: 06020101"	2019/3/5	2019/3/5
PRA000083	SAA004709	ST015		ZETTAICODE_FY2016_W	4010879	Kitakyushu_22_FY2016	Water	"River water"	2016							Asia	Japan	"entrance of Ankyo (the underdrain), Kiyotaki-gawa Riv., Fukuoka"	33.94		130.9602778																8	9.9	21			9																					"pH, DO, EC, SS: Annual average; Collected in FY2016(Apr. 1, 2016-Mar. 31, 2017); FukuokaPref_Code: 06050101"	2019/3/5	2019/3/5
PRA000083	SAA004710	ST015		ZETTAICODE_FY2016_W	4010903	Kitakyushu_23_FY2016	Water	"River water"	2016							Asia	Japan	"Dairi-bashi bridge, O-kawa Riv., Fukuoka"	33.915		130.9358333																8.1	11	370			4																					"pH, DO, EC, SS: Annual average; Collected in FY2016(Apr. 1, 2016-Mar. 31, 2017); FukuokaPref_Code: 06060101"	2019/3/5	2019/3/5
PRA000083	SAA004711	ST015		ZETTAICODE_FY2016_W	4010918	Kitakyushu_24_FY2016	Water	"River water"	2016							Asia	Japan	"Muranakagawa-bashi bridge, Muranaka-gawa Riv., Fukuoka"	33.89472222		130.9180556																8	10	220			2																					"pH, DO, EC, SS: Annual average; Collected in FY2016(Apr. 1, 2016-Mar. 31, 2017); FukuokaPref_Code: 06070101"	2019/3/5	2019/3/5
PRA000083	SAA004712	ST015		ZETTAICODE_FY2016_W	4013702	Kitakyushu_25_FY2016	Water	"River water"	2016							Asia	Japan	"Yatsugase-bashi bridge, upstream of Murasaki-gawa Riv., Fukuoka"	33.77722223		130.8408333																7.8	10	13			1																					"pH, DO, EC, SS: Annual average; Collected in FY2016(Apr. 1, 2016-Mar. 31, 2017); FukuokaPref_Code: 06090106"	2019/3/5	2019/3/5
PRA000083	SAA004713	ST015		ZETTAICODE_FY2016_W	4013705	Kitakyushu_26_FY2016	Water	"River water"	2016							Asia	Japan	"Sakura-bashi bridge, upstream of Murasaki-gawa Riv., Fukuoka"	33.82138889		130.8630556																8	10	22			2																					"pH, DO, EC, SS: Annual average; Collected in FY2016(Apr. 1, 2016-Mar. 31, 2017); FukuokaPref_Code: 06090107"	2019/3/5	2019/3/5
PRA000083	SAA004714	ST015		ZETTAICODE_FY2016_W	4013780	Kitakyushu_27_FY2016	Water	"River water"	2016							Asia	Japan	"Shingai-bashi bridge, Kusami-gawa Riv., Fukuoka"	33.80694444		130.9586111																7.7	9	64			2																					"pH, DO, EC, SS: Annual average; Collected in FY2016(Apr. 1, 2016-Mar. 31, 2017); FukuokaPref_Code: 06210101"	2019/3/5	2019/3/5
PRA000083	SAA004715	ST015		ZETTAICODE_FY2016_W	4013783	Kitakyushu_28_FY2016	Water	"River water"	2016							Asia	Japan	"Kanda-bashi bridge, Nuki-kawa Riv., Fukuoka"	33.81833334		130.9491667																7.7	9.3	15			4																					"pH, DO, EC, SS: Annual average; Collected in FY2016(Apr. 1, 2016-Mar. 31, 2017); FukuokaPref_Code: 06220101"	2019/3/5	2019/3/5
PRA000083	SAA004716	ST015		ZETTAICODE_FY2016_W	4014344	Kitakyushu_29_FY2016	Water	"River water"	2016							Asia	Japan	"Tsunemi-bashi bridge, Aiwari-gawa Riv., Fukuoka"	33.86694445		130.9738889																7.8	10	400			3																					"pH, DO, EC, SS: Annual average; Collected in FY2016(Apr. 1, 2016-Mar. 31, 2017); FukuokaPref_Code: 06230101"	2019/3/5	2019/3/5
PRA000083	SAA004717	ST015		ZETTAICODE_FY2016_W	4010933	Omuta_1_FY2016	Water	"River water"	2016							Asia	Japan	"Babamachi-Shusuizeki weir, upstream of Suwa-gawa Riv., Fukuoka"	33.01111111		130.4419444																8	9.6	170			4																					"pH, DO, EC, SS: Annual average; Collected in FY2016(Apr. 1, 2016-Mar. 31, 2017); FukuokaPref_Code: 12040104"	2019/3/5	2019/3/5
PRA000083	SAA004718	ST015		ZETTAICODE_FY2016_W	4010951	Omuta_2_FY2016	Water	"River water"	2016							Asia	Japan	"Railway bridge of Miike Railway, downstream of Suwa-gawa Riv., Fukuoka"	33.02222222		130.4275																8.2	10	5600			20																					"pH, DO, EC, SS: Annual average; Collected in FY2016(Apr. 1, 2016-Mar. 31, 2017); FukuokaPref_Code: 12040102"	2019/3/5	2019/3/5
PRA000083	SAA004719	ST015		ZETTAICODE_FY2016_W	4010966	Omuta_3_FY2016	Water	"River water"	2016							Asia	Japan	"Weir next to Miike Power Plant, upstream of Shiragane-gawa Riv., Fukuoka"	33.06111111		130.47																7.4	8.8	160			10																					"pH, DO, EC, SS: Annual average; Collected in FY2016(Apr. 1, 2016-Mar. 31, 2017); FukuokaPref_Code: 12020204"	2019/3/5	2019/3/5
PRA000083	SAA004720	ST015		ZETTAICODE_FY2016_W	4010981	Omuta_4_FY2016	Water	"River water"	2016							Asia	Japan	"Shinkawa-bashi bridge, downstream of Shiragane-gawa Riv., Fukuoka"	33.05138889		130.4472222																8	9.9	180			7																					"pH, DO, EC, SS: Annual average; Collected in FY2016(Apr. 1, 2016-Mar. 31, 2017); FukuokaPref_Code: 12020201"	2019/3/5	2019/3/5
PRA000083	SAA004721	ST015		ZETTAICODE_FY2016_W	4011038	Omuta_6_FY2016	Water	"River water"	2016							Asia	Japan	"Okogaeri-bashi bridge, Domen-gawa Riv., Fukuoka"	33.04361111		130.4725																7.6	9.3	210			7																					"pH, DO, EC, SS: Annual average; Collected in FY2016(Apr. 1, 2016-Mar. 31, 2017); FukuokaPref_Code: 12020106"	2019/3/5	2019/3/5
PRA000083	SAA004722	ST015		ZETTAICODE_FY2016_W	4011050	Omuta_7_FY2016	Water	"River water"	2016							Asia	Japan	"ShinDomen-bashi bridge, Domen-gawa Riv., Fukuoka"	33.04861111		130.4438889																7.9	9.3	7000			43																					"pH, DO, EC, SS: Annual average; Collected in FY2016(Apr. 1, 2016-Mar. 31, 2017); FukuokaPref_Code: 12020103"	2019/3/5	2019/3/5
PRA000083	SAA004723	ST015		ZETTAICODE_FY2016_W	4011116	Omuta_8_FY2016	Water	"River water"	2016							Asia	Japan	"Tsukazaki-bashi bridge, upstream of Kuma-gawa Riv., Fukuoka"	33.08166667		130.4666667																7.3	8.5	200			9																					"pH, DO, EC, SS: Annual average; Collected in FY2016(Apr. 1, 2016-Mar. 31, 2017); FukuokaPref_Code: 12010105"	2019/3/5	2019/3/5
PRA000083	SAA004724	ST015		ZETTAICODE_FY2016_W	4011143	Omuta_9_FY2016	Water	"River water"	2016							Asia	Japan	"MiikeKantakunai-bashi bridge, downstream of Kuma-gawa Riv., Fukuoka"	33.07527778		130.4291667																7.6	9.1	180			11																					"pH, DO, EC, SS: Annual average; Collected in FY2016(Apr. 1, 2016-Mar. 31, 2017); FukuokaPref_Code: 12010101"	2019/3/5	2019/3/5
PRA000083	SAA004725	ST015		ZETTAICODE_FY2016_W	4013579	Omuta_10_FY2016	Water	"River water"	2016							Asia	Japan	"Satsuki-bashi bridge, Omuta-gawa Riv., Fukuoka"	33.035		130.4480556																8.7	14	1300			4																					"pH, DO, EC, SS: Annual average; Collected in FY2016(Apr. 1, 2016-Mar. 31, 2017); FukuokaPref_Code: 12030104"	2019/3/5	2019/3/5
PRA000083	SAA004726	ST015		ZETTAICODE_FY2016_W	4013195	Onga_1_FY2016	Water	"River water"	2016							Asia	Japan	"Shingunomae-hashi bridge, upstream of Onga-gawa Riv., Fukuoka"	33.605		130.7191667																7.7	8	180			5																					"pH, DO, EC, SS: Annual average; Collected in FY2016(Apr. 1, 2016-Mar. 31, 2017); FukuokaPref_Code: 07010106"	2019/3/5	2019/3/5
PRA000083	SAA004727	ST015		ZETTAICODE_FY2016_W	4013204	Onga_2_FY2016	Water	"River water"	2016							Asia	Japan	"Kawashima, downstream of Onga-gawa Riv., Fukuoka"	33.65916667		130.6877778																7.7	9.4	270			5																					"pH, DO, EC, SS: Annual average; Collected in FY2016(Apr. 1, 2016-Mar. 31, 2017); FukuokaPref_Code: 07010104"	2019/3/5	2019/3/5
PRA000083	SAA004728	ST015		ZETTAICODE_FY2016_W	4013210	Onga_3_FY2016	Water	"River water"	2016							Asia	Japan	"Hinode-bashi bridge, downstream of Onga-gawa Riv., Fukuoka"	33.74972222		130.7316667																7.8	9.2	290			6																					"pH, DO, EC, SS: Annual average; Collected in FY2016(Apr. 1, 2016-Mar. 31, 2017); FukuokaPref_Code: 07010103"	2019/3/5	2019/3/5
PRA000083	SAA004729	ST015		ZETTAICODE_FY2016_W	4013246	Onga_9_FY2016	Water	"River water"	2016							Asia	Japan	"Egawa-bashi bridge, E-gawa Riv., Fukuoka"	33.88916666		130.6852778																7.8	7.3	2000			6																					"pH, DO, EC, SS: Annual average; Collected in FY2016(Apr. 1, 2016-Mar. 31, 2017); FukuokaPref_Code: 07010201"	2019/3/5	2019/3/5
PRA000083	SAA004730	ST015		ZETTAICODE_FY2016_W	4013255	Onga_10_FY2016	Water	"River water"	2016							Asia	Japan	"Shimazu-bashi bridge, Nishi-kawa Riv., Fukuoka"	33.87416667		130.6705556																7.6	8.8	5200			12																					"pH, DO, EC, SS: Annual average; Collected in FY2016(Apr. 1, 2016-Mar. 31, 2017); FukuokaPref_Code: 07010301"	2019/3/5	2019/3/5
PRA000083	SAA004731	ST015		ZETTAICODE_FY2016_W	4013264	Onga_11_FY2016	Water	"River water"	2016							Asia	Japan	"Kayuda-bashi bridge, Inunaki-gawa Riv., Fukuoka"	33.73638889		130.6916667																7.8	9.8	260			6																					"pH, DO, EC, SS: Annual average; Collected in FY2016(Apr. 1, 2016-Mar. 31, 2017); FukuokaPref_Code: 07010402"	2019/3/5	2019/3/5
PRA000083	SAA004732	ST015		ZETTAICODE_FY2016_W	4013282	Onga_14_FY2016	Water	"River water"	2016							Asia	Japan	"Wakino-bashi bridge, upstream of Yagiyama-gawa Riv., Fukuoka"	33.70694444		130.6566667																8	9.6	160			3																					"pH, DO, EC, SS: Annual average; Collected in FY2016(Apr. 1, 2016-Mar. 31, 2017); FukuokaPref_Code: 07010405"	2019/3/5	2019/3/5
PRA000083	SAA004733	ST015		ZETTAICODE_FY2016_W	4013291	Onga_15_FY2016	Water	"River water"	2016							Asia	Japan	"Higuchi-bashi bridge, downstream of Yagiyama-gawa Riv., Fukuoka"	33.72361111		130.6655556																7.9	9	270			5																					"pH, DO, EC, SS: Annual average; Collected in FY2016(Apr. 1, 2016-Mar. 31, 2017); FukuokaPref_Code: 07010404"	2019/3/5	2019/3/5
PRA000083	SAA004734	ST015		ZETTAICODE_FY2016_W	4013300	Onga_16_FY2016	Water	"River water"	2016							Asia	Japan	"Imato-bashi bridge, upstream of Hikosan-gawa Riv., Fukuoka"	33.61861111		130.8483333																7.9	10	170			6																					"pH, DO, EC, SS: Annual average; Collected in FY2016(Apr. 1, 2016-Mar. 31, 2017);FukuokaPref_Code: 07010505"	2019/3/5	2019/3/5
PRA000083	SAA004735	ST015		ZETTAICODE_FY2016_W	4013312	Onga_17_FY2016	Water	"River water"	2016							Asia	Japan	"Hoshii-bashi bridge, downstream of Hikosan-gawa. Riv., Fukuoka"	33.66416667		130.8011111																7.9	9.9	250			6																					"pH, DO, EC, SS: Annual average; Collected in FY2016(Apr. 1, 2016-Mar. 31, 2017); FukuokaPref_Code: 07010503"	2019/3/5	2019/3/5
PRA000083	SAA004736	ST015		ZETTAICODE_FY2016_W	4013324	Onga_19_FY2016	Water	"River water"	2016							Asia	Japan	"Sangase-bashi bridge, upstream of Chuganji-gawa Riv., Fukuoka"	33.61444444		130.7980556																7.8	8.2	230			4																					"pH, DO, EC, SS: Annual average; Collected in FY2016(Apr. 1, 2016-Mar. 31, 2017); FukuokaPref_Code: 07010507"	2019/3/5	2019/3/5
PRA000083	SAA004737	ST015		ZETTAICODE_FY2016_W	4013333	Onga_20_FY2016	Water	"River water"	2016							Asia	Japan	"Kaizoe-hashi bridge, downstream of Chugenji-gawa Riv., Fukuoka"	33.65583333		130.785																7.9	11	260			5																					"pH, DO, EC, SS: Annual average; Collected in FY2016(Apr. 1, 2016-Mar. 31, 2017); FukuokaPref_Code: 07010506"	2019/3/5	2019/3/5
PRA000083	SAA004738	ST015		ZETTAICODE_FY2016_W	4013342	Onga_21_FY2016	Water	"River water"	2016							Asia	Japan	"Takagi-bashi bridge, Kibe-gawa Riv., Fukuoka"	33.67083333		130.8011111																7.8	9.8	240			7																					"pH, DO, EC, SS: Annual average; Collected in FY2016(Apr. 1, 2016-Mar. 31, 2017); FukuokaPref_Code: 07010508"	2019/3/5	2019/3/5
PRA000083	SAA004739	ST015		ZETTAICODE_FY2016_W	4013351	Onga_22_FY2016	Water	"River water"	2016							Asia	Japan	"Tento-bashi bridge, upstream of Honami-gawa Riv., Fukuoka"	33.60361111		130.6725																7.6	8.2	200			7																					"pH, DO, EC, SS: Annual average; Collected in FY2016(Apr. 1, 2016-Mar. 31, 2017); FukuokaPref_Code: 07010702"	2019/3/5	2019/3/5
PRA000083	SAA004740	ST015		ZETTAICODE_FY2016_W	4013363	Onga_23_FY2016	Water	"River water"	2016							Asia	Japan	"Azumamachi-bashi bridge, downstream of Honami-gawa Riv., Fukuoka"	33.63805556		130.6888889																7.8	10	220			6																					"pH, DO, EC, SS: Annual average; Collected in FY2016(Apr. 1, 2016-Mar. 31, 2017); FukuokaPref_Code: 07010701"	2019/3/5	2019/3/5
PRA000083	SAA004741	ST015		ZETTAICODE_FY2016_W	4014503	Onga_33_FY2016	Water	"River water"	2016							Asia	Japan	"Okura-bashi bridge, Yamada-gawa Riv., Fukuoka"	33.59583333		130.7277778																8	7.9	630			5																					"pH, DO, EC, SS: Annual average; Collected in FY2016(Apr. 1, 2016-Mar. 31, 2017); FukuokaPref_Code: 07010802"	2019/3/5	2019/3/5
PRA000083	SAA004742	ST014		ZETTAICODE_FY2016_W	4030010	FukSea_1_FY2016	Water	"Sea water"	2016							Asia	Japan	"D6, Dokai Bay waters (Oku-Dokai), Fukuoka"	33.88361111		130.7836111																8.1	7.8			29																						"pH, DO, EC, SS: Annual average; Collected in FY2016(Apr. 1, 2016-Mar. 31, 2017); FukuokaPref_Code: 01030404"	2019/3/5	2019/3/5
PRA000083	SAA004743	ST014		ZETTAICODE_FY2016_W	4030080	FukSea_4_FY2016	Water	"Sea water"	2016							Asia	Japan	"K7, Dokai Bay waters (Nippon Steel Tobata anchorage), Fukuoka"	33.92111111		130.8586111																8.1	7.9			31																						"pH, DO, EC, SS: Annual average; Collected in FY2016(Apr. 1, 2016-Mar. 31, 2017); FukuokaPref_Code: 01030201"	2019/3/5	2019/3/5
PRA000083	SAA004744	ST014		ZETTAICODE_FY2016_W	4030130	FukSea_5_FY2016	Water	"Sea water"	2016							Asia	Japan	"K8, Dokai Bay waters (Sakai-gawa anchorage), Fukuoka"	33.91416667		130.8641667																8.1	7.7			31																						"pH, DO, EC, SS: Annual average; Collected in FY2016(Apr. 1, 2016-Mar. 31, 2017); FukuokaPref_Code: 01030101"	2019/3/5	2019/3/5
PRA000083	SAA004745	ST014		ZETTAICODE_FY2016_W	4030150	FukSea_6_FY2016	Water	"Sea water"	2016							Asia	Japan	"D2, Dokai Bay waters (the mouth of Dokai Bay), Fukuoka"	33.925		130.825																8.1	8			31																						"pH, DO, EC, SS: Annual average; Collected in FY2016(Apr. 1, 2016-Mar. 31, 2017); FukuokaPref_Code: 01030302"	2019/3/5	2019/3/5
PRA000083	SAA004746	ST014		ZETTAICODE_FY2016_W	4030170	FukSea_7_FY2016	Water	"Sea water"	2016							Asia	Japan	"H1, Dokai Bay waters (Hibiki-nada sea), Fukuoka"	33.94027777		130.8641667																8.1	7.8			32																						"pH, DO, EC, SS: Annual average; Collected in FY2016(Apr. 1, 2016-Mar. 31, 2017); FukuokaPref_Code: 01040001"	2019/3/5	2019/3/5
PRA000083	SAA004747	ST014		ZETTAICODE_FY2016_W	4030180	FukSea_8_FY2016	Water	"Sea water"	2016							Asia	Japan	"H5, Dokai Bay waters (Hibiki-nada sea), Fukuoka"	33.965		130.8375																8.1	7.8			32																						"pH, DO, EC, SS: Annual average; Collected in FY2016(Apr. 1, 2016-Mar. 31, 2017); FukuokaPref_Code: 01040005"	2019/3/5	2019/3/5
PRA000083	SAA004748	ST014		ZETTAICODE_FY2016_W	4030290	FukSea_11_FY2016	Water	"Sea water"	2016							Asia	Japan	"St-2, Ariake Sea (2), Fukuoka"	33.035		130.4166667																8.4	7.1			28	17																					"pH, DO, EC, SS: Annual average; Collected in FY2016(Apr. 1, 2016-Mar. 31, 2017); FukuokaPref_Code: 04010101"	2019/3/5	2019/3/5
PRA000083	SAA004749	ST014		ZETTAICODE_FY2016_W	4030350	FukSea_12_FY2016	Water	"Sea water"	2016							Asia	Japan	"St-1, Ariake Sea (3), Fukuoka"	33.01166667		130.4144444																8.5	7.4			29	12																					"pH, DO, EC, SS: Annual average; Collected in FY2016(Apr. 1, 2016-Mar. 31, 2017); FukuokaPref_Code: 04010201"	2019/3/5	2019/3/5
PRA000083	SAA004750	ST014		ZETTAICODE_FY2016_W	4030380	FukSea_13_FY2016	Water	"Sea water"	2016							Asia	Japan	"St-3, Ariake Sea (4), Fukuoka"	33.01583333		130.4013889																8.5	7.3			28	13																					"pH, DO, EC, SS: Annual average; Collected in FY2016(Apr. 1, 2016-Mar. 31, 2017); FukuokaPref_Code: 04010301"	2019/3/5	2019/3/5
PRA000083	SAA004751	ST014		ZETTAICODE_FY2016_W	4030390	FukSea_14_FY2016	Water	"Sea water"	2016							Asia	Japan	"St-4, Ariake Sea (4), Fukuoka"	33.0325		130.4047222																8.5	7.1			29	12																					"pH, DO, EC, SS: Annual average; Collected in FY2016(Apr. 1, 2016-Mar. 31, 2017); FukuokaPref_Code: 04010302"	2019/3/5	2019/3/5
PRA000083	SAA004752	ST014		ZETTAICODE_FY2016_W	4030400	FukSea_15_FY2016	Water	"Sea water"	2016							Asia	Japan	"St-5, Ariake Sea (4), Fukuoka"	33.04916667		130.4077778																8.5	7.2			28	13																					"pH, DO, EC, SS: Annual average; Collected in FY2016(Apr. 1, 2016-Mar. 31, 2017); FukuokaPref_Code: 04010303"	2019/3/5	2019/3/5
PRA000083	SAA004753	ST014		ZETTAICODE_FY2016_W	4030410	FukSea_16_FY2016	Water	"Sea water"	2016							Asia	Japan	"St-6, Ariake Sea (4), Fukuoka"	33.08166667		130.3836111																8.4	7.2			27	21																					"pH, DO, EC, SS: Annual average; Collected in FY2016(Apr. 1, 2016-Mar. 31, 2017); FukuokaPref_Code: 04010304"	2019/3/5	2019/3/5
PRA000083	SAA004754	ST014		ZETTAICODE_FY2016_W	4030420	FukSea_17_FY2016	Water	"Sea water"	2016							Asia	Japan	"St-7, Ariake Sea (4), Fukuoka"	33.11305556		130.3552778																8.3	7.1			24	46																					"pH, DO, EC, SS: Annual average; Collected in FY2016(Apr. 1, 2016-Mar. 31, 2017); FukuokaPref_Code: 04010305"	2019/3/5	2019/3/5
PRA000083	SAA004755	ST014		ZETTAICODE_FY2016_W	4030460	FukSea_18_FY2016	Water	"Sea water"	2016							Asia	Japan	"St-8, Ariake Sea (15), Fukuoka"	33.03055556		130.39																8.5	7.2			28	15																					"pH, DO, EC, SS: Annual average; Collected in FY2016(Apr. 1, 2016-Mar. 31, 2017); FukuokaPref_Code: 04010401"	2019/3/5	2019/3/5
PRA000083	SAA004756	ST014		ZETTAICODE_FY2016_W	4030470	FukSea_19_FY2016	Water	"Sea water"	2016							Asia	Japan	"St-9, Ariake Sea (15), Fukuoka"	33.08666667		130.3477778																8.4	7.3			26	27																					"pH, DO, EC, SS: Annual average; Collected in FY2016(Apr. 1, 2016-Mar. 31, 2017); FukuokaPref_Code: 04010402"	2019/3/5	2019/3/5
PRA000083	SAA004757	ST014		ZETTAICODE_FY2016_W	4030490	FukSea_20_FY2016	Water	"Sea water"	2016							Asia	Japan	"S-1, Buzen Sea, Fukuoka"	33.88083334		131.0222222																8.2	8.4			30	3																					"pH, DO, EC, SS: Annual average; Collected in FY2016(Apr. 1, 2016-Mar. 31, 2017); FukuokaPref_Code: 01010001"	2019/3/5	2019/3/5
PRA000083	SAA004758	ST014		ZETTAICODE_FY2016_W	4030500	FukSea_21_FY2016	Water	"Sea water"	2016							Asia	Japan	"S-2, Buzen Sea, Fukuoka"	33.80277778		131.0302778																8.2	8.1			31	1																					"pH, DO, EC, SS: Annual average; Collected in FY2016(Apr. 1, 2016-Mar. 31, 2017); FukuokaPref_Code: 01010002"	2019/3/5	2019/3/5
PRA000083	SAA004759	ST014		ZETTAICODE_FY2016_W	4030510	FukSea_22_FY2016	Water	"Sea water"	2016							Asia	Japan	"S-3, Buzen Sea, Fukuoka"	33.71638889		131.0777778																8.2	7.9			31	<1																					"pH, DO, EC, SS: Annual average; Collected in FY2016(Apr. 1, 2016-Mar. 31, 2017); FukuokaPref_Code: 01010003"	2019/3/5	2019/3/5
PRA000083	SAA004760	ST014		ZETTAICODE_FY2016_W	4030520	FukSea_23_FY2016	Water	"Sea water"	2016							Asia	Japan	"S-4, Buzen Sea, Fukuoka"	33.64916667		131.1497222																8.2	8			30	<1																					"pH, DO, EC, SS: Annual average; Collected in FY2016(Apr. 1, 2016-Mar. 31, 2017); FukuokaPref_Code: 01010004"	2019/3/5	2019/3/5
PRA000083	SAA004761	ST014		ZETTAICODE_FY2016_W	4030610	FukSea_26_FY2016	Water	"Sea water"	2016							Asia	Japan	"E-2, Hakata Bay (Eastern waters), Fukuoka"	33.64361111		130.3786111																8.2	7.9				4																					"pH, DO, EC, SS: Annual average; Collected in FY2016(Apr. 1, 2016-Mar. 31, 2017); FukuokaPref_Code: 03010102"	2019/3/5	2019/3/5
PRA000083	SAA004763	ST014		ZETTAICODE_FY2016_W	4030780	FukSea_29_FY2016	Water	"Sea water"	2016							Asia	Japan	"C-4, Hakata Bay (Central waters), Fukuoka"	33.60833333		130.3297222																8.2	7.9				3																					"pH, DO, EC, SS: Annual average; Collected in FY2016(Apr. 1, 2016-Mar. 31, 2017); FukuokaPref_Code: 03010203"	2019/3/5	2019/3/5
PRA000083	SAA004765	ST014		ZETTAICODE_FY2016_W	4030910	FukSea_32_FY2016	Water	"Sea water"	2016							Asia	Japan	"W-3, Hakata Bay (Western waters), Fukuoka"	33.66055556		130.2530556																8.2	7.9				1																					"pH, DO, EC, SS: Annual average; Collected in FY2016(Apr. 1, 2016-Mar. 31, 2017); FukuokaPref_Code: 03010303"	2019/3/5	2019/3/5
PRA000083	SAA004766	ST014		ZETTAICODE_FY2016_W	4031030	FukSea_36_FY2016	Water	"Sea water"	2016							Asia	Japan	"St-10, Port area of Omuta-gawa Riv., Fukuoka"	33.03555556		130.4216667																8.3	6.9			25	18																					"pH, DO, EC, SS: Annual average; Collected in FY2016(Apr. 1, 2016-Mar. 31, 2017); FukuokaPref_Code: 04020001"	2019/3/5	2019/3/5
PRA000083	SAA004767	ST014		ZETTAICODE_FY2016_W	4031050	FukSea_37_FY2016	Water	"Sea water"	2016							Asia	Japan	"St-1 (near the mouth of Onga-gawa Riv.), Chikuzen Sea, Fukuoka"	33.925		130.6377778																8.3	7.7			33	<1																					"pH, DO, EC, SS: Annual average; Collected in FY2016(Apr. 1, 2016-Mar. 31, 2017); FukuokaPref_Code: 02010004"	2019/3/5	2019/3/5
PRA000083	SAA004768	ST014		ZETTAICODE_FY2016_W	4031060	FukSea_38_FY2016	Water	"Sea water"	2016							Asia	Japan	"St-2 (near the mouth of Hakata Bay), Chikuzen Sea, Fukuoka"	33.70333333		130.2444444																8.2	7.8			33	<1																					"pH, DO, EC, SS: Annual average; Collected in FY2016(Apr. 1, 2016-Mar. 31, 2017); FukuokaPref_Code: 02010007"	2019/3/5	2019/3/5
PRA000083	SAA004769	ST014		ZETTAICODE_FY2016_W	4031150	FukSea_45_FY2016	Water	"Sea water"	2016							Asia	Japan	"L7, Ariake Sea (15), Fukuoka"	32.99166667		130.3494444																8.5	7.3			29	9																					"pH, DO, EC, SS: Annual average; Collected in FY2016(Apr. 1, 2016-Mar. 31, 2017); FukuokaPref_Code: 04010403"	2019/3/5	2019/3/5
PRA000083	SAA004770	ST014		ZETTAICODE_FY2016_W	4031160	FukSea_46_FY2016	Water	"Sea water"	2016							Asia	Japan	"K-1, Karatsu Bay, Fukuoka"	33.54138889		130.1391667																8.2	7.7			33	1																					"pH, DO, EC, SS: Annual average; Collected in FY2016(Apr. 1, 2016-Mar. 31, 2017); FukuokaPref_Code: 13010101"	2019/3/5	2019/3/5
PRA000083	SAA004771	ST014		ZETTAICODE_FY2016_W	4031170	FukSea_47_FY2016	Water	"Sea water"	2016							Asia	Japan	"K-2, Karatsu Bay, Fukuoka"	33.53638889		130.0641667																8.3	7.6			33	<1																					"pH, DO, EC, SS: Annual average; Collected in FY2016(Apr. 1, 2016-Mar. 31, 2017); FukuokaPref_Code: 13010102"	2019/3/5	2019/3/5
PRA000083	SAA004772	ST014		ZETTAICODE_FY2016_W	4031180	FukSea_48_FY2016	Water	"Sea water"	2016							Asia	Japan	"K-3, Karatsu Bay, Fukuoka"	33.50305556		130.0408333																8.3	7.7			33	<1																					"pH, DO, EC, SS: Annual average; Collected in FY2016(Apr. 1, 2016-Mar. 31, 2017); FukuokaPref_Code: 13010103"	2019/3/5	2019/3/5
PRA000083	SAA004773	ST015		ZETTAICODE_FY2016_W	4011173	Yabe_1_FY2016	Water	"River water"	2016							Asia	Japan	"Kamiyabegawa-bashi bridge, upstream of Yabe-gawa Riv., Fukuoka"	33.21083333		130.5894444																7.9	9.6	90			2																					"pH, DO, EC, SS: Annual average; Collected in FY2016(Apr. 1, 2016-Mar. 31, 2017); FukuokaPref_Code: 11030107"	2019/3/5	2019/3/5
PRA000083	SAA004774	ST015		ZETTAICODE_FY2016_W	4011185	Yabe_2_FY2016	Water	"River water"	2016							Asia	Japan	"Hoshinogawa-bashi bridge, upstream of Yabe-gawa Riv., Fukuoka"	33.21166667		130.5886111																7.9	9.8	110			5																					"pH, DO, EC, SS: Annual average; Collected in FY2016(Apr. 1, 2016-Mar. 31, 2017); FukuokaPref_Code: 11030601"	2019/3/5	2019/3/5
PRA000083	SAA004775	ST015		ZETTAICODE_FY2016_W	4011209	Yabe_3_FY2016	Water	"River water"	2016							Asia	Japan	"Funagoya, midstream of Yabe-gawa Riv., Fukuoka"	33.18222222		130.5047222																7.4	9.6	11			4																					"pH, DO, EC, SS: Annual average; Collected in FY2016(Apr. 1, 2016-Mar. 31, 2017); FukuokaPref_Code: 11030103"	2019/3/5	2019/3/5
PRA000083	SAA004776	ST015		ZETTAICODE_FY2016_W	4011239	Yabe_5_FY2016	Water	"River water"	2016							Asia	Japan	"Urashima-bashi bridge, downstream of Yabe-gawa Riv., Fukuoka"	33.12111111		130.4391667																7.5	8.3	640			26																					"pH, DO, EC, SS: Annual average; Collected in FY2016(Apr. 1, 2016-Mar. 31, 2017); FukuokaPref_Code: 11030101"	2019/3/5	2019/3/5
PRA000083	SAA004777	ST015		ZETTAICODE_FY2016_W	4011263	Yabe_6_FY2016	Water	"River water"	2016							Asia	Japan	"Nakadori-bashi bridge, Hebaru-gawa Riv., Fukuoka"	33.20083333		130.5797222																7.5	9.4	110			2																					"pH, DO, EC, SS: Annual average; Collected in FY2016(Apr. 1, 2016-Mar. 31, 2017); FukuokaPref_Code: 11030501"	2019/3/5	2019/3/5
PRA000083	SAA004778	ST015		ZETTAICODE_FY2016_W	4011296	Yabe_7_FY2016	Water	"River water"	2016							Asia	Japan	"Yamashita-bashi bridge, Shiraki-gawa Riv., Fukuoka"	33.18138889		130.5483333																7.6	9.5	130			2																					"pH, DO, EC, SS: Annual average; Collected in FY2016(Apr. 1, 2016-Mar. 31, 2017); FukuokaPref_Code: 11030401"	2019/3/5	2019/3/5
PRA000083	SAA004779	ST015		ZETTAICODE_FY2016_W	4011317	Yabe_8_FY2016	Water	"River water"	2016							Asia	Japan	"Koga-bashi bridge, upstream of Hae-gawa Riv., Fukuoka"	33.11805556		130.4691667																7.4	8.4	23			19																					"pH, DO, EC, SS: Annual average; Collected in FY2016(Apr. 1, 2016-Mar. 31, 2017); FukuokaPref_Code: 11030302"	2019/3/5	2019/3/5
PRA000083	SAA004780	ST015		ZETTAICODE_FY2016_W	4011365	Yabe_9_FY2016	Water	"River water"	2016							Asia	Japan	"Sangai-seki weir, Kusuda-gawa Riv., Fukuoka"	33.21083333		130.5894444																8	9	630			19																					"pH, DO, EC, SS: Annual average; Collected in FY2016(Apr. 1, 2016-Mar. 31, 2017); FukuokaPref_Code: 11030201"	2019/3/5	2019/3/5
PRA000083	SAA004781	ST015		ZETTAICODE_FY2016_W	4011392	Yabe_10_FY2016	Water	"River water"	2016							Asia	Japan	"Isodori-seki weir, upstream of Okinohata-gawa Riv., Fukuoka"	33.17638889		130.4313889																7.5	9.1	110			5																					"pH, DO, EC, SS: Annual average; Collected in FY2016(Apr. 1, 2016-Mar. 31, 2017); FukuokaPref_Code: 11010102"	2019/3/5	2019/3/5
PRA000083	SAA004782	ST015		ZETTAICODE_FY2016_W	4011419	Yabe_11_FY2016	Water	"River water"	2016							Asia	Japan	"Miake-bashi bridge, downstream of Okinohata-gawa Riv., Fukuoka"	33.15888889		130.3902778																7.6	8	660			660																					"pH, DO, EC, SS: Annual average; Collected in FY2016(Apr. 1, 2016-Mar. 31, 2017); FukuokaPref_Code: 11010101"	2019/3/5	2019/3/5
PRA000083	SAA004783	ST015		ZETTAICODE_FY2016_W	4011446	Yabe_12_FY2016	Water	"River water"	2016							Asia	Japan	"Seiten-ohashi bridge, Shiotsuka-gawa Riv., Fukuoka"	33.15722222		130.4186111																7.7	8.6	140			34																					"pH, DO, EC, SS: Annual average; Collected in FY2016(Apr. 1, 2016-Mar. 31, 2017); FukuokaPref_Code: 11020101"	2019/3/5	2019/3/5
PRA000083	SAA004784	ST015		ZETTAICODE_FY2016_W	4014497	Yabe_13_FY2016	Water	"River water"	2016							Asia	Japan	"Choji-bashi bridge, Hae-gawa Riv., Fukuoka"	33.11527778		130.4519444																7.5	7.8	240			57																					"pH, DO, EC, SS: Annual average; Collected in FY2016(Apr. 1, 2016-Mar. 31, 2017); FukuokaPref_Code: 11030303"	2019/3/5	2019/3/5
PRA000085	SAA004845	ST009	73031			INMRMH	"Perna viridis"	"Green mussel"	1995	12	10					Asia	India	"Mahim, Maharashtra"	19.030617	19.0498	72.836119	72.847041		"Whole soft tissue"	5.96	75.5																																					Pooled	2019/3/14	2019/3/14
PRA000085	SAA004846	ST009	73031			INTNMD	"Perna viridis"	"Green mussel"	1994	12	9					Asia	India	"Madras, Tamil Nadu"	12.837313	13.241534	80.083681	80.336359		"Whole soft tissue"	7.3	77.7																																					Pooled	2019/3/14	2019/3/14
PRA000085	SAA004847	ST009	73031			INWBDH	"Perna viridis"	"Green mussel"	1995	9	4					Asia	India	"Digha, West Bengal"	21.612319	21.635139	87.488111	87.534204		"Whole soft tissue"	5.46	82.7																																					Pooled	2019/3/14	2019/3/14
PRA000085	SAA004848	ST009	73031			INMHMB	"Perna viridis"	"Green mussel"	1998	3	19					Asia	India	"Bombay, Maharashtra"	18.174207	19.254174	72.785097	72.980925		"Whole soft tissue"	1.67	83.6																																					Pooled	2019/3/14	2019/3/14
PRA000085	SAA004849	ST009	73031			INKLCH	"Perna viridis"	"Green mussel"	1995	12	7					Asia	India	"Cochin, Kerala"	9.786073	10.053564	76.205077	76.429704		"Whole soft tissue"	7.01	79.7																																					Pooled	2019/3/14	2019/3/14
PRA000085	SAA004851	ST009	73031			IDGJSB	"Perna viridis"	"Green mussel"	1998	7	20					Asia	Indonesia	"Genjeran, Surabaya"	-7.198321	-7.210409	112.757119	112.779603		"Whole soft tissue"	11.49	82.1																																					Pooled	2019/3/14	2019/3/14
PRA000085	SAA004852	ST009	73031			IDJKCL	"Perna viridis"	"Green mussel"	1998	7	28					Asia	Indonesia	"Cilincing, Jakarta"	-6.092579	-6.161701	106.90706	106.971563		"Whole soft tissue"	16.75	81.3																																					Pooled	2019/3/14	2019/3/14
PRA000085	SAA004853	ST009	73031			IDJKKA	"Perna viridis"	"Green mussel"	1998	7	29					Asia	Indonesia	"Kamal, Jakarta"	-6.088904	-6.134819	106.714112	106.752639		"Whole soft tissue"	4.08	83.3																																					Pooled	2019/3/14	2019/3/14
PRA000085	SAA004854	ST009	73031			IDMRUP	"Perna viridis"	"Green mussel"	1998	7	16					Asia	Indonesia	"Maros, Ujung Pandarg"	-5.099956	-5.214185	119.386595	119.457807		"Whole soft tissue"	6.39	79.9																																					Pooled	2019/3/14	2019/3/14
PRA000085	SAA004855	ST009	73031			IDBLMD	"Perna viridis"	"Green mussel"	1998	7	12					Asia	Indonesia	"Belawan, Medan"	3.761827	3.79618	98.680347	98.718797		"Whole soft tissue"	5.7	81.4																																					Pooled	2019/3/14	2019/3/14
PRA000085	SAA004857	ST009	73031			MYKESI-2	"Perna viridis"	"Green mussel"	1998	9	20					Asia	Malaysia	"Sangkar Ikan, Langkawi"	6.291827	6.327394	99.828803	99.868085		"Whole soft tissue"	3.69	83.8																																					Pooled	2019/3/14	2019/3/14
PRA000085	SAA004859	ST009	73031			MYPEPB-1	"Perna viridis"	"Green mussel"	1997	3	14					Asia	Malaysia	"Penang Bridge, Penang"	5.352913		100.353008			"Whole soft tissue"	5.6	82.4																																					Pooled	2019/3/14	2019/3/14
PRA000085	SAA004862	ST009	73031			MYMAAB	"Perna viridis"	"Green mussel"	1998	9	22					Asia	Malaysia	"Anjung Batu, Malacca"	2.142332	2.145806	102.351569	102.3553		"Whole soft tissue"	5.02	83.7																																					Pooled	2019/3/14	2019/3/14
PRA000085	SAA004863	ST009	73031			MYJBPL-3	"Perna viridis"	"Green mussel"	1998	9	23					Asia	Malaysia	"Pantai Lido, Johor Bahru"	1.453659	1.493824	103.716951	103.793609		"Whole soft tissue"	5.9	83.1																																					Pooled	2019/3/14	2019/3/14
PRA000085	SAA004869	ST009	73031			SPCHAR	"Perna viridis"	"Green mussel"	1999	9	22					Asia	Singapore	"Changi Airport"	1.311191	1.393094	103.959037	104.043378		"Whole soft tissue"	8.78	79.1																																					Pooled	2019/3/14	2019/3/14
PRA000085	SAA004870	ST009	73031			THSPCP-2	"Perna viridis"	"Green mussel"	1995	3	23					Asia	Thailand	"Chao Phraya River, Samut Prakarn"	13.519582	13.70707	100.529783	100.6385		"Whole soft tissue"	4.86	78.4																																					Pooled	2019/3/14	2019/3/14
PRA000085	SAA004871	ST009	73031			THPKAM	"Perna viridis"	"Green mussel"	1995	3	20					Asia	Thailand	"Ao Makhham, Phuket"	7.799001	7.861511	98.374768	98.410561		"Whole soft tissue"	3.94	82																																					Pooled	2019/3/14	2019/3/14
PRA000085	SAA004872	ST009	73031			THPNYR	"Perna viridis"	"Green mussel"	1995	3	16					Asia	Thailand	"Yaring, Pattani"	6.853801	6.936812	101.239646	101.448429		"Whole soft tissue"	4.69	83.7																																					Pooled	2019/3/14	2019/3/14
PRA000085	SAA004873	ST009	73031			THSKTC	"Perna viridis"	"Green mussel"	1994	9	4					Asia	Thailand	"Thachin River, Samut Sakhon"	13.496771	13.545681	100.24745	100.299549		"Whole soft tissue"	4.62	82.5																																					Pooled	2019/3/14	2019/3/14
PRA000085	SAA004878	ST009	73031			CAKKLT-2	"Perna viridis"	"Green mussel"	1998	7	21					Asia	Cambodia	"Lo Tangao Kandal-2"	10.918048	11.889818	104.819525	105.178487		"Whole soft tissue"	6.19	84.8																																					Pooled	2019/3/14	2019/3/14
PRA000085	SAA004880	ST009	73031			CASVTR	"Perna viridis"	"Green mussel"	1998	8	15					Asia	Cambodia	"Tomnup Rolork(Sihanouk Ville)"	10.645143	10.692642	103.49888	103.545012		"Whole soft tissue"	8.72	78.6																																					Pooled	2019/3/14	2019/3/14
PRA000085	SAA004882	ST009	73031			VNHULC	"Perna viridis"	"Green mussel"	1997	10	12					Asia	Vietnam	"Lang Co, Thua Thien Hue"	16.222055	16.2894611	108.039326	108.211049		"Whole soft tissue"	3.94	85.7																																					Pooled	2019/3/14	2019/3/14
PRA000085	SAA004883	ST009	73031			VNTHLT	"Perna viridis"	"Green mussel"	1997	10	25					Asia	Vietnam	"Lach Truong, Thanh Hoa Province"	19.940526	19.956307	105.98043	106.018297		"Whole soft tissue"	5.45	81.4																																					Pooled	2019/3/14	2019/3/14
PRA000085	SAA004884	ST009	73031			VNKARR	"Perna viridis"	"Green mussel"	1997	10	18					Asia	Vietnam	"Ron river estuary, Ky Anh Province"	17.96235	18.265826	106.161725	106.500839		"Whole soft tissue"	7.32	84.1																																					Pooled	2019/3/14	2019/3/14
PRA000085	SAA004885	ST009	73031			VNBDTN	"Perna viridis"	"Green mussel"	1997	10	5					Asia	Vietnam	"Thi Nai, Binh Dinh"	13.778729	13.785036	109.221138	109.235425		"Whole soft tissue"	5.22	85.6																																					Pooled	2019/3/14	2019/3/14
PRA000085	SAA004887	ST009	73031			PHCVBC-2	"Perna viridis"	"Green mussel"	1997	4	9					Asia	Philippines	"Bacoor, Cavite"	14.450249	14.474842	120.925864	120.969692		"Whole soft tissue"	6.27	79.4																																					Pooled	2019/3/14	2019/3/14
PRA000085	SAA004888	ST009	73031			PHBTSL	"Perna viridis"	"Green mussel"	1997	4	8					Asia	Philippines	"Samal, Bataan"	14.741404	14.787491	120.546798	120.554996		"Whole soft tissue"	5.41	81.9																																					Pooled	2019/3/14	2019/3/14
PRA000085	SAA004889	ST009	73031			PHMMMB	"Perna viridis"	"Green mussel"	1997	4	10					Asia	Philippines	"Malabon, Metro Manila"	14.653859	14.700133	120.927327	120.973334		"Whole soft tissue"	7.34	77.3																																					Pooled	2019/3/14	2019/3/14
PRA000085	SAA004890	ST009	73031			PHSMVR	"Perna viridis"	"Green mussel"	1997	4	5					Asia	Philippines	"Villareal, Samar"	11.532467	11.6121	124.877617	124.967852		"Whole soft tissue"	5.89	79.6																																					Pooled	2019/3/14	2019/3/14
PRA000085	SAA004894	ST009	29158			JPTB12	"Mytilus galloprovincialis"	"Blue mussel"	1994	3	26					Asia	Japan	Tsurumi	35.449844	35.497776	139.668761	139.724935		"Whole soft tissue"	7.43	82.5																																					"Pooled; Collected from navigational markers in Tokyo Bay, in cooperation with the Japan Coast Guard"	2019/3/14	2019/3/14
PRA000085	SAA004895	ST009	29158			JPTB26	"Mytilus galloprovincialis"	"Blue mussel"	1994	12	5					Asia	Japan	Kawasaki	35.48666667	35.57833333	139.8294444	140.0047222		"Whole soft tissue"	7.8	81.3																																					"Pooled; Collected from navigational markers in Tokyo Bay, in cooperation with the Japan Coast Guard"	2019/3/14	2019/3/14
PRA000085	SAA004900	ST009	29158			JPTB24	"Mytilus galloprovincialis"	"Blue mussel"	1994	12	19					Asia	Japan	Arakawa	35.643979	35.66504	139.841396	139.849406		"Whole soft tissue"	4.85	83.6																																					"Pooled; Collected from navigational markers in Tokyo Bay, in cooperation with the Japan Coast Guard"	2019/3/14	2019/3/14
PRA000085	SAA004907	ST009	29158			JPTB01-00	"Mytilus galloprovincialis"	"Blue mussel"	2000	12	14					Asia	Japan	Tsurumi	35.449844	35.497776	139.668761	139.724935		"Whole soft tissue"	9.88	82.3																																					"Pooled; Collected from navigational markers in Tokyo Bay, in cooperation with the Japan Coast Guard"	2019/3/14	2019/3/14
PRA000085	SAA004908	ST009	29158			JPTB02-01	"Mytilus galloprovincialis"	"Blue mussel"	2001	1	11					Asia	Japan	Kawasaki	35.48666667	35.57833333	139.8294444	140.0047222		"Whole soft tissue"	7.18	83.5																																					"Pooled; Collected from navigational markers in Tokyo Bay, in cooperation with the Japan Coast Guard"	2019/3/14	2019/3/14
PRA000085	SAA004909	ST009	29158			JPTB03-99	"Mytilus galloprovincialis"	"Blue mussel"	1999	9	8					Asia	Japan	Tamagawa	35.54063	35.545857	139.72531	139.75069		"Whole soft tissue"		81.8																																					"Pooled; Collected from navigational markers in Tokyo Bay, in cooperation with the Japan Coast Guard"	2019/3/14	2019/3/14
PRA000085	SAA004910	ST009	29158			JPTB04-99	"Mytilus galloprovincialis"	"Blue mussel"	1999	8	23					Asia	Japan	Haneda	35.53281	35.570338	139.755964	139.80895		"Whole soft tissue"	8.28	83.6																																					"Pooled; Collected from navigational markers in Tokyo Bay, in cooperation with the Japan Coast Guard"	2019/3/14	2019/3/14
PRA000085	SAA004911	ST009	29158			JPTB04-01	"Mytilus galloprovincialis"	"Blue mussel"	2001	9	14					Asia	Japan	Haneda	35.53281	35.570338	139.755964	139.80895		"Whole soft tissue"	7.95	78.7																																					"Pooled; Collected from navigational markers in Tokyo Bay, in cooperation with the Japan Coast Guard"	2019/3/14	2019/3/14
PRA000085	SAA004912	ST009	29158			JPTB05-01	"Mytilus galloprovincialis"	"Blue mussel"	2001	1	10					Asia	Japan	"Tokyo harbor"	35.535	35.58333333	139.7922222	139.8936111		"Whole soft tissue"	9.64	80.3																																					"Pooled; Collected from navigational markers in Tokyo Bay, in cooperation with the Japan Coast Guard"	2019/3/14	2019/3/14
PRA000085	SAA004913	ST009	29158			JPTB06-01	"Mytilus galloprovincialis"	"Blue mussel"	2001	11	12					Asia	Japan	"Tokyo harbor"	35.535	35.58333333	139.7922222	139.8936111		"Whole soft tissue"	7.06	83																																					"Pooled; Collected from navigational markers in Tokyo Bay, in cooperation with the Japan Coast Guard"	2019/3/14	2019/3/14
PRA000085	SAA004914	ST009	29158			JPTB07-01	"Mytilus galloprovincialis"	"Blue mussel"	2001	1	10					Asia	Japan	Arakawa	35.643979	35.66504	139.841396	139.849406		"Whole soft tissue"	9.82	83.2																																					"Pooled; Collected from navigational markers in Tokyo Bay, in cooperation with the Japan Coast Guard"	2019/3/14	2019/3/14
PRA000085	SAA004915	ST009	29158			JPTB08-00	"Mytilus galloprovincialis"	"Blue mussel"	2000	11	30					Asia	Japan	Yokohama	35.33083333	35.49472222	139.6372222	139.7572222		"Whole soft tissue"	3.51	73.2																																					"Pooled; Collected from navigational markers in Tokyo Bay, in cooperation with the Japan Coast Guard"	2019/3/14	2019/3/14
PRA000085	SAA004916	ST009	29158			JPTB09-01	"Mytilus galloprovincialis"	"Blue mussel"	2001	9	6					Asia	Japan	Honmoku	35.427301	35.443329	139.67629	139.69054		"Whole soft tissue"	5.79	72.4																																					"Pooled; Collected from navigational markers in Tokyo Bay, in cooperation with the Japan Coast Guard"	2019/3/14	2019/3/14
PRA000085	SAA004917	ST009	29158			JPTB10-00	"Mytilus galloprovincialis"	"Blue mussel"	2000	11	30					Asia	Japan	Negishi	35.402933	35.413186	139.629925	139.645339		"Whole soft tissue"	3.63	79																																					"Pooled; Collected from navigational markers in Tokyo Bay, in cooperation with the Japan Coast Guard"	2019/3/14	2019/3/14
PRA000085	SAA004918	ST009	29158			JPTB11-00	"Mytilus galloprovincialis"	"Blue mussel"	2000	11	28					Asia	Japan	Anegasaki	35.48416667	35.51694444	139.9472222	140.01		"Whole soft tissue"	5.26	78.5																																					"Pooled; Collected from navigational markers in Tokyo Bay, in cooperation with the Japan Coast Guard"	2019/3/14	2019/3/14
PRA000085	SAA004919	ST009	29158			JPTB12-00	"Mytilus galloprovincialis"	"Blue mussel"	2000	12	14					Asia	Japan	Kisarazu	35.355712	35.441365	139.892341	139.948299		"Whole soft tissue"	7.06	83																																					"Pooled; Collected from navigational markers in Tokyo Bay, in cooperation with the Japan Coast Guard"	2019/3/14	2019/3/14
PRA000085	SAA004920	ST009	29158			JPTB13-01	"Mytilus galloprovincialis"	"Blue mussel"	2001	3	6					Asia	Japan	Kurihama	35.210897	35.226452	139.713479	139.72508		"Whole soft tissue"	6.18	80.3																																					"Pooled; Collected from navigational markers in Tokyo Bay, in cooperation with the Japan Coast Guard"	2019/3/14	2019/3/14
PRA000113	SAA007828	ST035				TY-W1	Air	"Dust (working place of ELV household)"	2013	1						Asia	Vietnam	"ELV (end-of-life-vehicle) recycling site, Thuyen village, Bac Giang province"	21.276038	21.282696	106.230231	106.236495																																									"ELV household 1; ELV-related activities: operated in the household backyards and semi-open facilities reinforced by steel frames and corrugated sheets; No clear boundary between workplaces and living areas in ELV workshops."	2021/1/27	2021/1/27
PRA000113	SAA007829	ST035				TY-W2	Air	"Dust (working place of ELV household)"	2013	1						Asia	Vietnam	"ELV (end-of-life-vehicle) recycling site, Thuyen village, Bac Giang province"	21.276038	21.282696	106.230231	106.236495																																									"ELV household 2; ELV-related activities: operated in the household backyards and semi-open facilities reinforced by steel frames and corrugated sheets; No clear boundary between workplaces and living areas in ELV workshops."	2021/1/27	2021/1/27
PRA000113	SAA007830	ST035				TY-W3	Air	"Dust (working place of ELV household)"	2013	1						Asia	Vietnam	"ELV (end-of-life-vehicle) recycling site, Thuyen village, Bac Giang province"	21.276038	21.282696	106.230231	106.236495																																									"ELV household 3; ELV-related activities: operated in the household backyards and semi-open facilities reinforced by steel frames and corrugated sheets; No clear boundary between workplaces and living areas in ELV workshops."	2021/1/27	2021/1/27
PRA000113	SAA007831	ST035				TY-L1	Air	"Dust (living area of ELV household)"	2013	1						Asia	Vietnam	"ELV (end-of-life-vehicle) recycling site, Thuyen village, Bac Giang province"	21.276038	21.282696	106.230231	106.236495																																									"ELV household 1; ELV-related activities: operated in the household backyards and semi-open facilities reinforced by steel frames and corrugated sheets; No clear boundary between workplaces and living areas in ELV workshops."	2021/1/27	2021/1/27
PRA000113	SAA007832	ST035				TY-L2	Air	"Dust (living area of ELV household)"	2013	1						Asia	Vietnam	"ELV (end-of-life-vehicle) recycling site, Thuyen village, Bac Giang province"	21.276038	21.282696	106.230231	106.236495																																									"ELV household 2; ELV-related activities: operated in the household backyards and semi-open facilities reinforced by steel frames and corrugated sheets; No clear boundary between workplaces and living areas in ELV workshops."	2021/1/27	2021/1/27
PRA000113	SAA007833	ST035				TY-L3	Air	"Dust (living area of ELV household)"	2013	1						Asia	Vietnam	"ELV (end-of-life-vehicle) recycling site, Thuyen village, Bac Giang province"	21.276038	21.282696	106.230231	106.236495																																									"ELV household 3; ELV-related activities: operated in the household backyards and semi-open facilities reinforced by steel frames and corrugated sheets; No clear boundary between workplaces and living areas in ELV workshops."	2021/1/27	2021/1/27
PRA000113	SAA007834	ST035				HN-H1	Air	"House dust (settled dust)"	2016	9						Asia	Vietnam	Hanoi	20.995249	21.049966	105.797843	105.876297																																									"Urban area; Manually collected by sweeping the floor and furniture surface using non-plastic brooms"	2021/1/27	2021/1/27
PRA000113	SAA007835	ST035				HN-H2	Air	"House dust (settled dust)"	2016	9						Asia	Vietnam	Hanoi	20.995249	21.049966	105.797843	105.876297																																									"Urban area; Manually collected by sweeping the floor and furniture surface using non-plastic brooms"	2021/1/27	2021/1/27
PRA000113	SAA007836	ST035				HN-H3	Air	"House dust (settled dust)"	2016	9						Asia	Vietnam	Hanoi	20.995249	21.049966	105.797843	105.876297																																									"Urban area; Manually collected by sweeping the floor and furniture surface using non-plastic brooms"	2021/1/27	2021/1/27
